Data for 07/06/2011

Time Sea-Level Adjusted Pressure Absolute Pressure Temperature Relative Humidity Dew Point Precipitation   
(mb) (inHg) (mb) (inHg) (C) (F) (%) (C) (F) (mm) (in)
00:01 1024 30.24 853 25.19 17.2 62.9 69 11.4 52.6 -75.7 -2.98
00:02 1024 30.24 853 25.19 17.2 62.9 69 11.5 52.7 -75.8 -2.984
00:03 1024 30.24 853 25.19 17.2 63 68 11.4 52.4 -75.8 -2.984
00:04 1024 30.24 853 25.19 17.5 63.6 66 11.3 52.4 -75.8 -2.984
00:05 1024 30.24 853 25.19 17.9 64.2 65 11.2 52.2 -75.8 -2.984
00:06 1024 30.24 853 25.19 18.5 65.2 63 11.4 52.5 -75.9 -2.988
00:07 1024 30.24 853 25.19 18.9 65.9 62 11.4 52.6 -75.9 -2.988
00:08 1024 30.24 853 25.19 19.1 66.4 60 11.3 52.4 -76 -2.992
00:09 1024 30.24 853 25.19 19.4 66.9 60 11.5 52.8 -76 -2.992
00:10 1024 30.24 853 25.19 19.5 67.2 60 11.6 52.9 -76.1 -2.996
00:11 1024 30.24 853 25.19 19.6 67.3 59 11.5 52.7 -76.1 -2.996
00:12 1024 30.24 853 25.19 19.8 67.6 59 11.6 52.9 -76.1 -2.996
00:13 1024 30.24 853 25.19 19.8 67.7 58 11.5 52.8 -76.2 -3
00:14 1024 30.24 853 25.19 20 68.1 58 11.6 52.8 -76.2 -3
00:15 1024 30.24 853 25.19 20.1 68.1 58 11.6 53 -76.2 -3
00:16 1024 30.24 853 25.19 20.2 68.3 57 11.4 52.5 -76.2 -3
00:17 1024 30.24 853 25.19 20.3 68.5 56 11.4 52.5 -76.2 -3
00:18 1024 30.24 853 25.19 20.4 68.7 56 11.5 52.7 -76.2 -3
00:19 1024 30.24 853 25.19 20.4 68.8 56 11.5 52.7 -76.2 -3
00:20 1024 30.24 853 25.19 20.4 68.7 56 11.5 52.7 -76.2 -3
00:21 1024 30.24 853 25.19 20.3 68.6 57 11.6 52.9 -76.2 -3
00:22 1024 30.24 853 25.19 20.3 68.5 57 11.5 52.8 -76.2 -3
00:23 1024 30.24 853 25.19 20.3 68.5 56 11.4 52.5 -76.1 -2.996
00:24 1024 30.24 853 25.19 20.4 68.6 57 11.6 52.9 -76.1 -2.996
00:25 1024 30.24 853 25.19 20.4 68.7 56 11.5 52.7 -76.1 -2.996
00:26 1024 30.24 853 25.19 20.4 68.7 57 11.7 53 -76 -2.992
00:27 1024 30.24 853 25.19 20.2 68.4 58 11.7 53.1 -76 -2.992
00:28 1024 30.24 853 25.19 20.2 68.4 57 11.5 52.7 -76 -2.992
00:29 1024 30.24 853 25.19 20.3 68.5 58 11.8 53.2 -75.9 -2.988
00:30 1024 30.24 853 25.19 20.1 68.2 58 11.8 53.2 -75.9 -2.988
00:31 1024 30.24 853 25.19 20 68.1 58 11.7 53 -75.8 -2.984
00:32 1024 30.24 853 25.19 20 68 58 11.7 53 -75.8 -2.984
00:33 1024 30.24 853 25.19 20 68 58 11.7 53 -75.8 -2.984
00:34 1024 30.24 853 25.19 19.9 67.8 59 11.7 53.1 -75.7 -2.98
00:35 1024 30.24 853 25.19 19.8 67.6 59 11.7 53 -75.7 -2.98
00:36 1024 30.24 853 25.19 19.8 67.7 59 11.7 53 -75.6 -2.976
00:37 1024 30.24 853 25.19 19.8 67.7 59 11.6 52.9 -75.6 -2.976
00:38 1024 30.24 853 25.19 19.8 67.7 59 11.7 53 -75.6 -2.976
00:39 1024 30.24 853 25.19 19.9 67.8 59 11.7 53 -75.6 -2.976
00:40 1024 30.24 853 25.19 20 67.9 58 11.5 52.7 -75.5 -2.972
00:41 1024 30.24 853 25.19 20 68 58 11.7 53.1 -75.5 -2.972
00:42 1024 30.24 853 25.19 20.1 68.1 58 11.6 53 -75.5 -2.972
00:43 1024 30.24 853 25.19 20.1 68.2 58 11.6 52.9 -75.4 -2.969
00:44 1024 30.24 853 25.19 20.1 68.2 58 11.6 52.9 -75.4 -2.969
00:45 1024 30.24 853 25.19 20.2 68.3 58 11.7 53 -75.4 -2.969
00:46 1024 30.24 853 25.19 20.1 68.2 57 11.5 52.8 -75.4 -2.969
00:47 1024 30.24 853 25.19 20.2 68.3 57 11.5 52.7 -75.4 -2.969
00:48 1024 30.24 853 25.19 20.2 68.4 57 11.7 53 -75.3 -2.965
00:49 1024 30.24 853 25.19 20.3 68.5 57 11.5 52.7 -75.3 -2.965
00:50 1024 30.24 853 25.19 20.3 68.5 57 11.7 53.1 -75.3 -2.965
00:51 1024 30.24 853 25.19 20.3 68.5 57 11.7 53 -75.3 -2.965
00:52 1024 30.24 853 25.19 20.3 68.5 57 11.6 53 -75.2 -2.961
00:53 1023 30.21 853 25.19 20.1 68.2 58 11.6 52.9 -75.2 -2.961
00:54 1023 30.21 853 25.19 20.2 68.3 57 11.6 52.9 -75.2 -2.961
00:55 1023 30.21 853 25.19 20.2 68.3 58 11.7 53 -75.2 -2.961
00:56 1023 30.21 853 25.19 20.1 68.2 57 11.5 52.7 -75.1 -2.957
00:57 1023 30.21 853 25.19 20.3 68.6 56 11.4 52.6 -75.1 -2.957
00:58 1023 30.21 853 25.19 20.4 68.7 57 11.6 52.9 -75.1 -2.957
00:59 1023 30.21 853 25.19 20.3 68.6 57 11.7 53 -75.1 -2.957
01:00 1023 30.21 853 25.19 20.3 68.6 57 11.7 53.1 -75 -2.953
01:01 1023 30.21 853 25.19 20.2 68.4 58 11.7 53.1 -75 -2.953
01:02 1023 30.21 853 25.19 20.2 68.3 58 11.7 53 -75 -2.953
01:03 1023 30.21 853 25.19 20.2 68.3 57 11.6 52.9 -74.9 -2.949
01:04 1023 30.21 853 25.19 20.2 68.4 58 11.7 53.1 -74.9 -2.949
01:05 1024 30.24 853 25.19 20.2 68.3 58 11.8 53.2 -74.9 -2.949
01:06 1024 30.24 853 25.19 20.1 68.1 58 11.7 53.1 -74.9 -2.949
01:07 1023 30.21 853 25.19 20.1 68.2 58 11.7 53.1 -74.8 -2.945
01:08 1024 30.24 853 25.19 20.1 68.2 58 11.8 53.2 -74.8 -2.945
01:09 1024 30.24 853 25.19 20.1 68.2 58 11.7 53 -74.8 -2.945
01:10 1024 30.24 853 25.19 20 68.1 58 11.6 52.9 -74.8 -2.945
01:11 1024 30.24 853 25.19 20 68 58 11.7 53.1 -74.8 -2.945
01:12 1024 30.24 853 25.19 20.1 68.1 58 11.7 53.1 -74.8 -2.945
01:13 1024 30.24 853 25.19 20.1 68.1 60 12.1 53.8 -74.9 -2.949
01:14 1024 30.24 853 25.19 20 68 59 11.9 53.4 -75 -2.953
01:15 1024 30.24 853 25.19 20 68 59 11.9 53.5 -75.2 -2.961
01:16 1024 30.24 853 25.19 20 68 59 11.9 53.3 -75.5 -2.972
01:17 1024 30.24 853 25.19 19.9 67.9 59 11.9 53.5 -75.8 -2.984
01:18 1024 30.24 853 25.19 19.9 67.8 60 12 53.5 -76.3 -3.004
01:19 1024 30.24 853 25.19 19.8 67.6 61 12.1 53.8 -76.9 -3.028
01:20 1024 30.24 853 25.19 19.7 67.4 62 12.3 54.2 -77.5 -3.051
01:21 1024 30.24 853 25.19 19.5 67.1 63 12.3 54.2 -78 -3.071
01:22 1024 30.24 853 25.19 19.3 66.8 63 12.2 54 -78.4 -3.087
01:23 1024 30.24 853 25.19 19.1 66.4 64 12.2 54 -78.5 -3.091
01:24 1024 30.24 853 25.19 18.8 65.8 63 11.7 53.1 -78.5 -3.091
01:25 1024 30.24 853 25.19 18.5 65.2 63 11.4 52.6 -78.4 -3.087
01:26 1024 30.24 853 25.19 18.2 64.8 64 11.5 52.7 -78.1 -3.075
01:27 1024 30.24 853 25.19 18.1 64.7 64 11.3 52.4 -77.5 -3.051
01:28 1024 30.24 853 25.19 18.3 65 63 11.2 52.2 -75.5 -2.972
01:29 1024 30.24 853 25.19 18.6 65.4 63 11.4 52.6 -74.1 -2.917
01:30 1024 30.24 853 25.19 18.7 65.6 62 11.4 52.6 -73.3 -2.886
01:31 1024 30.24 853 25.19 18.8 65.8 60 11 51.7 -74.9 -2.949
01:32 1024 30.24 853 25.19 18.7 65.7 61 11.2 52.2 -78.5 -3.091
01:33 1024 30.24 853 25.19 18.7 65.6 62 11.4 52.6 -79.8 -3.142
01:34 1024 30.24 853 25.19 18.5 65.4 63 11.4 52.5 -81.6 -3.213
01:35 1024 30.24 853 25.19 18.4 65.2 65 11.8 53.2 -77.9 -3.067
01:36 1024 30.24 853 25.19 18.3 65 64 11.6 52.9 -74.6 -2.937
01:37 1024 30.24 853 25.19 18.1 64.6 67 12 53.7 -72.8 -2.866
01:38 1024 30.24 853 25.19 17.8 64 70 12.3 54.1 -71.9 -2.831
01:39 1024 30.24 853 25.19 17.5 63.4 71 12.2 53.9 -71.4 -2.811
01:40 1024 30.24 853 25.19 17.3 63.1 74 12.5 54.6 -71.2 -2.803
01:41 1024 30.24 853 25.19 17 62.6 75 12.7 54.8 -71.1 -2.799
01:42 1024 30.24 853 25.19 16.9 62.5 76 12.7 54.9 -70.9 -2.791
01:43 1024 30.24 853 25.19 16.9 62.4 78 13.2 55.7 -70.8 -2.787
01:44 1024 30.24 853 25.19 16.8 62.2 79 13.1 55.6 -70.7 -2.783
01:45 1024 30.24 853 25.19 16.6 61.9 75 12.1 53.9 -70.6 -2.78
01:46 1024 30.24 853 25.19 16.7 62 75 12.2 54 -70.7 -2.783
01:47 1024 30.24 853 25.19 16.6 61.9 75 12.2 53.9 -71 -2.795
01:48 1024 30.24 853 25.19 16.5 61.8 75 12.2 53.9 -71.2 -2.803
01:49 1024 30.24 853 25.19 16.4 61.5 75 12.1 53.7 -71.3 -2.807
01:50 1024 30.24 853 25.19 16.3 61.3 75 11.9 53.5 -71.6 -2.819
01:51 1024 30.24 853 25.19 16.2 61.2 76 11.9 53.5 -71.8 -2.827
01:52 1024 30.24 853 25.19 16 60.9 78 12.2 53.9 -72 -2.835
01:53 1024 30.24 853 25.19 15.8 60.5 80 12.4 54.3 -72.1 -2.839
01:54 1024 30.24 853 25.19 15.6 60.1 80 12.2 54 -72.2 -2.843
01:55 1024 30.24 853 25.19 15.5 59.8 80 12.1 53.9 -72.3 -2.846
01:56 1024 30.24 853 25.19 15.4 59.7 80 12 53.7 -72.3 -2.846
01:57 1024 30.24 853 25.19 15.4 59.6 79 11.8 53.3 -72.3 -2.846
01:58 1024 30.24 853 25.19 15.4 59.7 80 11.9 53.5 -72.4 -2.85
01:59 1024 30.24 853 25.19 15.4 59.6 80 12 53.6 -72.5 -2.854
02:00 1024 30.24 853 25.19 15.3 59.6 81 12.1 53.8 -72.6 -2.858
02:01 1024 30.24 853 25.19 15.2 59.4 81 12.1 53.7 -72.7 -2.862
02:02 1024 30.24 853 25.19 15.1 59.2 82 12.1 53.7 -72.7 -2.862
02:03 1024 30.24 853 25.19 15 58.9 83 12.1 53.7 -72.7 -2.862
02:04 1024 30.24 853 25.19 14.8 58.7 84 12.1 53.9 -72.6 -2.858
02:05 1024 30.24 853 25.19 14.8 58.6 85 12.3 54.2 -72.6 -2.858
02:06 1024 30.24 853 25.19 14.7 58.5 86 12.4 54.3 -72.7 -2.862
02:07 1024 30.24 853 25.19 14.6 58.3 85 12.2 53.9 -72.8 -2.866
02:08 1024 30.24 853 25.19 14.7 58.4 84 12 53.6 -73 -2.874
02:09 1024 30.24 853 25.19 14.8 58.7 84 12.1 53.8 -73.1 -2.878
02:10 1024 30.24 853 25.19 14.9 58.9 83 12.1 53.8 -73.3 -2.886
02:11 1024 30.24 853 25.19 14.9 58.8 83 12 53.7 -73.3 -2.886
02:12 1024 30.24 853 25.19 14.9 58.8 83 12.1 53.7 -73.4 -2.89
02:13 1024 30.24 853 25.19 14.9 58.8 82 12 53.5 -73.5 -2.894
02:14 1024 30.24 853 25.19 14.9 58.9 81 11.7 53.1 -73.6 -2.898
02:15 1024 30.24 853 25.19 15.1 59.2 82 12 53.6 -73.8 -2.906
02:16 1024 30.24 853 25.19 15.1 59.1 82 12 53.6 -73.9 -2.909
02:17 1024 30.24 853 25.19 15 59 82 12 53.6 -74 -2.913
02:18 1024 30.24 853 25.19 14.9 58.8 82 11.8 53.3 -74.1 -2.917
02:19 1024 30.24 853 25.19 14.8 58.7 82 11.8 53.2 -74.2 -2.921
02:20 1024 30.24 853 25.19 14.9 58.9 81 11.7 53 -74.4 -2.929
02:21 1024 30.24 853 25.19 15.1 59.2 80 11.7 53 -74.6 -2.937
02:22 1024 30.24 853 25.19 15.2 59.4 80 11.8 53.3 -74.7 -2.941
02:23 1024 30.24 853 25.19 15.2 59.4 80 11.9 53.4 -74.9 -2.949
02:24 1024 30.24 853 25.19 15.1 59.1 81 11.9 53.4 -75 -2.953
02:25 1024 30.24 853 25.19 15 59.1 81 11.8 53.2 -75.1 -2.957
02:26 1024 30.24 853 25.19 15.1 59.1 81 11.8 53.3 -75.1 -2.957
02:27 1024 30.24 853 25.19 15.1 59.1 81 11.8 53.3 -75.1 -2.957
02:28 1024 30.24 853 25.19 15.1 59.2 81 11.9 53.4 -75.2 -2.961
02:29 1024 30.24 853 25.19 15.1 59.1 81 11.8 53.3 -75.3 -2.965
02:30 1024 30.24 853 25.19 15.1 59.1 81 11.9 53.3 -75.4 -2.969
02:31 1024 30.24 853 25.19 14.9 58.8 82 11.8 53.3 -75.5 -2.972
02:32 1024 30.24 853 25.19 14.9 58.9 81 11.7 53.1 -75.6 -2.976
02:33 1024 30.24 853 25.19 15.1 59.2 80 11.7 53 -75.8 -2.984
02:34 1024 30.24 853 25.19 15.4 59.8 77 11.5 52.8 -75.9 -2.988
02:35 1024 30.24 853 25.19 16 60.8 75 11.6 52.8 -75.9 -2.988
02:36 1024 30.24 853 25.19 16.4 61.5 73 11.6 53 -75.8 -2.984
02:37 1024 30.24 853 25.19 16.6 61.9 73 11.8 53.3 -75.8 -2.984
02:38 1024 30.24 853 25.19 16.4 61.6 76 12.1 53.9 -75.9 -2.988
02:39 1024 30.24 853 25.19 16 60.9 78 12.2 54 -75.9 -2.988
02:40 1024 30.24 853 25.19 15.6 60.1 80 12.2 54 -75.9 -2.988
02:41 1024 30.24 853 25.19 15.2 59.4 82 12.2 54 -76 -2.992
02:42 1024 30.24 853 25.19 15 59.1 83 12.2 54 -76 -2.992
02:43 1024 30.24 853 25.19 14.9 58.7 84 12.2 54 -76 -2.992
02:44 1024 30.24 853 25.19 14.7 58.5 84 12.1 53.8 -76 -2.992
02:45 1024 30.24 853 25.19 14.7 58.4 84 12.1 53.7 -76 -2.992
02:46 1024 30.24 853 25.19 14.6 58.2 85 12.1 53.7 -76 -2.992
02:47 1024 30.24 853 25.19 14.5 58.1 85 12.1 53.7 -76 -2.992
02:48 1024 30.24 853 25.19 14.5 58 86 12.1 53.7 -75.9 -2.988
02:49 1024 30.24 853 25.19 14.4 58 85 12 53.6 -75.9 -2.988
02:50 1024 30.24 853 25.19 14.5 58.1 85 12 53.6 -75.8 -2.984
02:51 1024 30.24 853 25.19 14.5 58.1 85 12 53.6 -75.8 -2.984
02:52 1024 30.24 853 25.19 14.5 58 85 12 53.5 -75.8 -2.984
02:53 1024 30.24 853 25.19 14.4 57.9 85 12 53.5 -75.8 -2.984
02:54 1024 30.24 853 25.19 14.4 58 85 12 53.6 -75.8 -2.984
02:55 1024 30.24 853 25.19 14.4 58 85 12 53.6 -75.6 -2.976
02:56 1024 30.24 853 25.19 14.4 57.9 85 12 53.6 -75.6 -2.976
02:57 1024 30.24 853 25.19 14.3 57.7 86 11.9 53.5 -75.6 -2.976
02:58 1024 30.24 853 25.19 14.2 57.5 87 12 53.5 -75.7 -2.98
02:59 1024 30.24 853 25.19 14.1 57.4 87 12 53.5 -75.7 -2.98
03:00 1024 30.24 853 25.19 14.2 57.5 86 11.9 53.5 -75.7 -2.98
03:01 1024 30.24 853 25.19 14.3 57.7 85 11.8 53.3 -75.8 -2.984
03:02 1024 30.24 853 25.19 14.1 57.5 86 11.9 53.3 -75.8 -2.984
03:03 1024 30.24 853 25.19 14 57.1 87 11.9 53.4 -75.9 -2.988
03:04 1024 30.24 853 25.19 13.8 56.9 88 11.8 53.3 -76 -2.992
03:05 1024 30.24 853 25.19 13.9 57 87 11.8 53.2 -76 -2.992
03:06 1024 30.24 853 25.19 14 57.1 86 11.7 53.1 -76 -2.992
03:07 1024 30.24 853 25.19 14 57.1 86 11.6 52.9 -76 -2.992
03:08 1024 30.24 853 25.19 13.8 56.8 86 11.5 52.8 -76 -2.992
03:09 1024 30.24 853 25.19 13.8 56.8 86 11.5 52.6 -75.9 -2.988
03:10 1024 30.24 853 25.19 13.7 56.7 85 11.4 52.5 -75.7 -2.98
03:11 1024 30.24 853 25.19 13.8 56.8 85 11.3 52.3 -75.7 -2.98
03:12 1024 30.24 853 25.19 13.9 56.9 84 11.2 52.1 -75.7 -2.98
03:13 1024 30.24 853 25.19 13.9 57.1 83 11.2 52.1 -75.8 -2.984
03:14 1024 30.24 853 25.19 13.8 56.9 85 11.4 52.5 -75.9 -2.988
03:15 1024 30.24 853 25.19 13.7 56.6 85 11.3 52.3 -76 -2.992
03:16 1024 30.24 853 25.19 13.7 56.6 85 11.2 52.2 -76 -2.992
03:17 1024 30.24 853 25.19 13.8 56.8 85 11.3 52.3 -76 -2.992
03:18 1024 30.24 853 25.19 13.8 56.8 85 11.3 52.4 -76 -2.992
03:19 1024 30.24 853 25.19 13.8 56.8 85 11.4 52.4 -76 -2.992
03:20 1024 30.24 853 25.19 13.8 56.8 85 11.4 52.4 -76 -2.992
03:21 1024 30.24 853 25.19 13.9 57 85 11.4 52.4 -76.2 -3
03:22 1024 30.24 853 25.19 13.9 57 84 11.3 52.4 -76.3 -3.004
03:23 1024 30.24 853 25.19 13.9 56.9 84 11.3 52.3 -76.3 -3.004
03:24 1024 30.24 853 25.19 13.8 56.8 84 11.2 52.2 -76.4 -3.008
03:25 1024 30.24 853 25.19 13.8 56.8 85 11.2 52.2 -76.5 -3.012
03:26 1024 30.24 853 25.19 13.7 56.7 85 11.2 52.1 -76.6 -3.016
03:27 1024 30.24 853 25.19 13.7 56.7 85 11.2 52.2 -76.7 -3.02
03:28 1024 30.24 853 25.19 13.6 56.4 86 11.2 52.1 -76.7 -3.02
03:29 1024 30.24 853 25.19 13.4 56.1 86 11.2 52.1 -76.7 -3.02
03:30 1024 30.24 853 25.19 13.2 55.8 87 11.2 52.1 -76.7 -3.02
03:31 1024 30.24 853 25.19 13.1 55.6 87 11.1 52 -76.7 -3.02
03:32 1024 30.24 853 25.19 13 55.3 88 11 51.9 -76.6 -3.016
03:33 1024 30.24 853 25.19 12.9 55.2 88 11 51.8 -76.6 -3.016
03:34 1024 30.24 853 25.19 12.9 55.2 88 11 51.8 -76.7 -3.02
03:35 1024 30.24 853 25.19 12.9 55.1 89 11 51.9 -76.8 -3.024
03:36 1024 30.24 853 25.19 12.8 55 88 10.9 51.6 -76.9 -3.028
03:37 1024 30.24 853 25.19 12.7 54.8 89 10.9 51.6 -76.9 -3.028
03:38 1024 30.24 853 25.19 12.6 54.8 89 10.8 51.5 -76.9 -3.028
03:39 1024 30.24 853 25.19 12.6 54.7 88 10.7 51.3 -76.9 -3.028
03:40 1024 30.24 853 25.19 12.6 54.6 87 10.5 51 -76.9 -3.028
03:41 1024 30.24 853 25.19 12.5 54.6 86 10.3 50.6 -77 -3.031
03:42 1024 30.24 853 25.19 12.6 54.7 85 10.1 50.3 -77 -3.031
03:43 1024 30.24 853 25.19 12.8 55 84 10.1 50.3 -77.2 -3.039
03:44 1024 30.24 853 25.19 12.9 55.3 83 10.2 50.4 -77.5 -3.051
03:45 1024 30.24 853 25.19 12.9 55.3 84 10.4 50.7 -77.7 -3.059
03:46 1024 30.24 853 25.19 12.9 55.2 87 10.7 51.3 -77.8 -3.063
03:47 1024 30.24 853 25.19 12.8 55.1 87 10.8 51.4 -77.7 -3.059
03:48 1024 30.24 853 25.19 12.8 55.1 87 10.8 51.4 -77.7 -3.059
03:49 1024 30.24 853 25.19 12.9 55.1 87 10.8 51.4 -77.6 -3.055
03:50 1024 30.24 853 25.19 12.8 55 87 10.7 51.3 -77.6 -3.055
03:51 1024 30.24 853 25.19 12.7 54.9 88 10.7 51.3 -77.6 -3.055
03:52 1024 30.24 853 25.19 12.7 54.9 88 10.8 51.5 -77.7 -3.059
03:53 1024 30.24 853 25.19 12.7 54.9 88 10.8 51.5 -77.6 -3.055
03:54 1024 30.24 853 25.19 12.7 54.9 89 10.9 51.6 -77.6 -3.055
03:55 1024 30.24 853 25.19 12.7 54.9 89 10.9 51.7 -77.6 -3.055
03:56 1024 30.24 853 25.19 12.7 54.9 89 10.9 51.6 -77.6 -3.055
03:57 1024 30.24 853 25.19 12.7 54.9 88 10.8 51.5 -77.6 -3.055
03:58 1024 30.24 853 25.19 12.8 55 88 10.8 51.5 -77.7 -3.059
03:59 1024 30.24 853 25.19 12.8 55 87 10.8 51.4 -77.7 -3.059
04:00 1024 30.24 853 25.19 12.8 55.1 87 10.7 51.3 -77.8 -3.063
04:01 1024 30.24 853 25.19 12.8 55.1 87 10.7 51.3 -77.9 -3.067
04:02 1024 30.24 853 25.19 12.8 55 86 10.5 51 -78 -3.071
04:03 1024 30.24 853 25.19 12.7 54.9 87 10.6 51.1 -78.1 -3.075
04:04 1024 30.24 853 25.19 12.8 55.1 86 10.6 51 -78.2 -3.079
04:05 1024 30.24 853 25.19 12.9 55.2 86 10.5 51 -78.3 -3.083
04:06 1024 30.24 853 25.19 12.9 55.2 85 10.5 50.9 -78.3 -3.083
04:07 1024 30.24 853 25.19 12.9 55.1 85 10.5 50.9 -78.4 -3.087
04:08 1024 30.24 853 25.19 12.9 55.2 86 10.5 51 -78.4 -3.087
04:09 1024 30.24 853 25.19 12.9 55.2 85 10.5 50.9 -78.5 -3.091
04:10 1024 30.24 853 25.19 12.8 55 85 10.4 50.8 -78.6 -3.094
04:11 1024 30.24 853 25.19 12.8 55 86 10.5 50.8 -78.6 -3.094
04:12 1024 30.24 853 25.19 12.8 55 86 10.5 50.8 -78.7 -3.098
04:13 1024 30.24 853 25.19 12.8 55.1 86 10.5 50.9 -78.7 -3.098
04:14 1024 30.24 853 25.19 12.9 55.1 85 10.4 50.8 -78.7 -3.098
04:15 1024 30.24 853 25.19 12.9 55.2 85 10.5 50.8 -78.7 -3.098
04:16 1024 30.24 854 25.22 13 55.3 85 10.5 50.9 -78.7 -3.098
04:17 1024 30.24 853 25.19 12.9 55.2 85 10.4 50.8 -78.8 -3.102
04:18 1024 30.24 853 25.19 12.8 55.1 86 10.5 50.9 -78.9 -3.106
04:19 1024 30.24 853 25.19 12.8 55 86 10.5 50.9 -78.9 -3.106
04:20 1024 30.24 853 25.19 12.8 55.1 86 10.5 50.9 -78.9 -3.106
04:21 1024 30.24 853 25.19 12.8 55 86 10.5 50.8 -78.9 -3.106
04:22 1024 30.24 853 25.19 12.7 54.8 86 10.5 50.8 -79 -3.11
04:23 1024 30.24 853 25.19 12.7 54.8 86 10.4 50.8 -79 -3.11
04:24 1024 30.24 853 25.19 12.7 54.8 86 10.4 50.7 -79 -3.11
04:25 1024 30.24 853 25.19 12.6 54.7 87 10.4 50.8 -79 -3.11
04:26 1024 30.24 853 25.19 12.6 54.7 86 10.4 50.7 -79 -3.11
04:27 1024 30.24 853 25.19 12.6 54.6 87 10.4 50.7 -78.9 -3.106
04:28 1024 30.24 853 25.19 12.6 54.7 86 10.3 50.6 -78.9 -3.106
04:29 1024 30.24 853 25.19 12.6 54.6 86 10.3 50.6 -78.9 -3.106
04:30 1024 30.24 853 25.19 12.6 54.7 86 10.3 50.6 -78.9 -3.106
04:31 1024 30.24 853 25.19 12.5 54.5 86 10.2 50.4 -78.9 -3.106
04:32 1024 30.24 853 25.19 12.5 54.5 86 10.2 50.4 -79 -3.11
04:33 1024 30.24 853 25.19 12.6 54.6 86 10.3 50.5 -79 -3.11
04:34 1024 30.24 853 25.19 12.6 54.7 85 10.3 50.5 -79 -3.11
04:35 1024 30.24 853 25.19 12.7 54.8 85 10.2 50.4 -79 -3.11
04:36 1024 30.24 853 25.19 12.7 54.8 85 10.2 50.4 -79 -3.11
04:37 1024 30.24 853 25.19 12.7 54.8 85 10.3 50.5 -79 -3.11
04:38 1024 30.24 853 25.19 12.7 54.8 85 10.3 50.6 -79 -3.11
04:39 1024 30.24 853 25.19 12.8 55 85 10.4 50.6 -79 -3.11
04:40 1024 30.24 853 25.19 12.7 54.9 85 10.2 50.4 -78.9 -3.106
04:41 1024 30.24 853 25.19 12.7 54.9 85 10.4 50.6 -79 -3.11
04:42 1024 30.24 853 25.19 12.7 54.8 85 10.2 50.4 -79.1 -3.114
04:43 1024 30.24 853 25.19 12.6 54.8 85 10.3 50.5 -79.2 -3.118
04:44 1024 30.24 853 25.19 12.5 54.5 86 10.2 50.4 -79.3 -3.122
04:45 1024 30.24 853 25.19 12.4 54.4 86 10.2 50.4 -79.4 -3.126
04:46 1024 30.24 853 25.19 12.3 54.2 86 10.1 50.2 -79.4 -3.126
04:47 1024 30.24 853 25.19 12.4 54.3 87 10.2 50.4 -79.5 -3.13
04:48 1024 30.24 853 25.19 12.5 54.5 86 10.2 50.4 -79.5 -3.13
04:49 1024 30.24 853 25.19 12.5 54.5 86 10.2 50.3 -79.5 -3.13
04:50 1024 30.24 853 25.19 12.5 54.5 86 10.2 50.3 -79.5 -3.13
04:51 1024 30.24 853 25.19 12.5 54.6 86 10.2 50.3 -79.6 -3.134
04:52 1024 30.24 853 25.19 12.6 54.6 85 10.2 50.3 -79.6 -3.134
04:53 1024 30.24 853 25.19 12.6 54.7 85 10.1 50.2 -79.7 -3.138
04:54 1024 30.24 853 25.19 12.7 54.8 85 10.2 50.3 -79.7 -3.138
04:55 1024 30.24 853 25.19 12.7 54.9 85 10.2 50.4 -79.8 -3.142
04:56 1024 30.24 853 25.19 12.7 54.9 85 10.2 50.4 -79.8 -3.142
04:57 1024 30.24 853 25.19 12.7 54.9 85 10.3 50.6 -79.8 -3.142
04:58 1024 30.24 853 25.19 12.7 54.8 86 10.4 50.7 -79.9 -3.146
04:59 1024 30.24 853 25.19 12.6 54.7 87 10.5 50.8 -79.9 -3.146
05:00 1024 30.24 853 25.19 12.5 54.5 87 10.5 50.8 -79.9 -3.146
05:01 1024 30.24 853 25.19 12.5 54.4 88 10.5 50.9 -79.8 -3.142
05:02 1024 30.24 853 25.19 12.4 54.4 88 10.6 51 -79.8 -3.142
05:03 1024 30.24 853 25.19 12.5 54.5 87 10.5 50.9 -79.7 -3.138
05:04 1024 30.24 854 25.22 12.5 54.4 88 10.5 50.9 -79.7 -3.138
05:05 1024 30.24 853 25.19 12.4 54.4 88 10.5 51 -79.7 -3.138
05:06 1024 30.24 853 25.19 12.5 54.4 88 10.5 50.9 -79.7 -3.138
05:07 1024 30.24 853 25.19 12.5 54.4 88 10.5 50.8 -79.7 -3.138
05:08 1024 30.24 853 25.19 12.4 54.3 86 10.2 50.3 -79.8 -3.142
05:09 1024 30.24 853 25.19 12.4 54.3 86 10.1 50.2 -79.8 -3.142
05:10 1024 30.24 853 25.19 12.3 54.2 86 10 50 -79.9 -3.146
05:11 1024 30.24 853 25.19 12.2 54 86 10 49.9 -80 -3.15
05:12 1024 30.24 853 25.19 12.1 53.8 86 9.9 49.8 -80.1 -3.154
05:13 1024 30.24 853 25.19 12 53.6 87 9.9 49.8 -80.2 -3.157
05:14 1024 30.24 853 25.19 12 53.6 87 9.8 49.7 -80.2 -3.157
05:15 1024 30.24 853 25.19 12.1 53.7 87 9.9 49.9 -80.2 -3.157
05:16 1024 30.24 853 25.19 12.3 54.2 85 9.9 49.9 -80.2 -3.157
05:17 1024 30.24 853 25.19 12.5 54.6 84 9.9 49.9 -80.2 -3.157
05:18 1024 30.24 853 25.19 12.6 54.7 84 10 50 -80.2 -3.157
05:19 1024 30.24 854 25.22 12.7 54.8 84 10.1 50.2 -80.3 -3.161
05:20 1024 30.24 854 25.22 12.6 54.7 85 10.1 50.3 -80.3 -3.161
05:21 1024 30.24 854 25.22 12.6 54.6 84 10 50 -80.3 -3.161
05:22 1024 30.24 854 25.22 12.6 54.7 83 9.8 49.7 -80.3 -3.161
05:23 1024 30.24 854 25.22 12.7 54.9 82 9.8 49.6 -80.4 -3.165
05:24 1024 30.24 854 25.22 12.8 55.1 82 9.8 49.7 -80.5 -3.169
05:25 1024 30.24 854 25.22 12.8 55 82 9.8 49.6 -80.6 -3.173
05:26 1024 30.24 854 25.22 12.8 55.1 81 9.7 49.5 -80.6 -3.173
05:27 1024 30.24 854 25.22 12.8 55.1 81 9.6 49.4 -80.8 -3.181
05:28 1024 30.24 854 25.22 12.9 55.1 80 9.5 49.2 -80.9 -3.185
05:29 1024 30.24 854 25.22 12.9 55.2 80 9.5 49.1 -80.9 -3.185
05:30 1024 30.24 854 25.22 13 55.3 79 9.4 49 -80.9 -3.185
05:31 1024 30.24 854 25.22 13.1 55.5 79 9.5 49.1 -81 -3.189
05:32 1024 30.24 854 25.22 13.2 55.7 78 9.4 49 -81 -3.189
05:33 1024 30.24 854 25.22 13.3 56 78 9.5 49.2 -81.1 -3.193
05:34 1024 30.24 854 25.22 13.4 56.1 77 9.5 49.1 -81.1 -3.193
05:35 1024 30.24 854 25.22 13.5 56.3 76 9.4 49 -81.1 -3.193
05:36 1024 30.24 854 25.22 13.5 56.3 77 9.7 49.4 -81.2 -3.197
05:37 1024 30.24 854 25.22 13.4 56 79 9.7 49.5 -81.2 -3.197
05:38 1024 30.24 854 25.22 13.1 55.7 80 9.7 49.5 -81.2 -3.197
05:39 1024 30.24 854 25.22 13 55.4 81 9.8 49.6 -81.2 -3.197
05:40 1024 30.24 854 25.22 12.9 55.1 81 9.8 49.6 -81.2 -3.197
05:41 1024 30.24 854 25.22 12.7 54.9 82 9.7 49.4 -81.1 -3.193
05:42 1024 30.24 854 25.22 12.6 54.7 82 9.6 49.3 -81.1 -3.193
05:43 1024 30.24 854 25.22 12.5 54.4 82 9.5 49.1 -81.1 -3.193
05:44 1024 30.24 854 25.22 12.3 54.1 83 9.5 49.1 -81.1 -3.193
05:45 1024 30.24 854 25.22 12.1 53.8 84 9.5 49.1 -81.1 -3.193
05:46 1024 30.24 854 25.22 11.9 53.5 85 9.4 49 -81 -3.189
05:47 1024 30.24 854 25.22 11.8 53.2 86 9.4 49 -80.9 -3.185
05:48 1024 30.24 854 25.22 11.6 52.8 87 9.5 49.1 -80.8 -3.181
05:49 1024 30.24 854 25.22 11.6 52.8 87 9.4 48.9 -80.7 -3.177
05:50 1024 30.24 854 25.22 11.6 52.9 86 9.4 49 -80.6 -3.173
05:51 1024 30.24 854 25.22 11.8 53.2 85 9.4 48.9 -80.6 -3.173
05:52 1024 30.24 854 25.22 11.9 53.4 85 9.4 48.9 -80.8 -3.181
05:53 1024 30.24 854 25.22 11.8 53.3 85 9.3 48.8 -80.8 -3.181
05:54 1024 30.24 854 25.22 11.8 53.2 85 9.4 49 -80.9 -3.185
05:55 1024 30.24 854 25.22 11.8 53.2 85 9.4 48.9 -80.9 -3.185
05:56 1024 30.24 854 25.22 11.7 53.1 86 9.5 49 -81 -3.189
05:57 1024 30.24 854 25.22 11.8 53.2 85 9.4 48.9 -81 -3.189
05:58 1024 30.24 854 25.22 11.7 53 86 9.4 49 -81 -3.189
05:59 1024 30.24 854 25.22 11.6 52.8 86 9.3 48.8 -81 -3.189
06:00 1024 30.24 854 25.22 11.5 52.7 86 9.3 48.7 -81 -3.189
06:01 1024 30.24 854 25.22 11.5 52.7 86 9.3 48.7 -81.1 -3.193
06:02 1024 30.24 854 25.22 11.4 52.5 87 9.3 48.7 -81.1 -3.193
06:03 1024 30.24 854 25.22 11.4 52.5 86 9.2 48.5 -81.1 -3.193
06:04 1024 30.24 854 25.22 11.5 52.8 85 9.1 48.4 -81.2 -3.197
06:05 1024 30.24 854 25.22 11.7 53 84 9.1 48.5 -81.2 -3.197
06:06 1024 30.24 854 25.22 11.7 53.1 84 9.2 48.5 -81.3 -3.201
06:07 1024 30.24 854 25.22 11.8 53.2 84 9.2 48.6 -81.4 -3.205
06:08 1024 30.24 854 25.22 11.8 53.2 84 9.2 48.5 -81.4 -3.205
06:09 1024 30.24 854 25.22 11.8 53.3 84 9.2 48.5 -81.5 -3.209
06:10 1024 30.24 854 25.22 11.9 53.4 84 9.2 48.6 -81.5 -3.209
06:11 1024 30.24 854 25.22 11.9 53.5 84 9.3 48.7 -81.5 -3.209
06:12 1024 30.24 854 25.22 12 53.5 84 9.3 48.7 -81.5 -3.209
06:13 1024 30.24 854 25.22 12 53.7 83 9.3 48.7 -81.5 -3.209
06:14 1024 30.24 854 25.22 12.1 53.8 83 9.2 48.6 -81.5 -3.209
06:15 1024 30.24 854 25.22 12.2 54 82 9.3 48.8 -81.5 -3.209
06:16 1024 30.24 854 25.22 12.3 54.1 82 9.4 48.8 -81.6 -3.213
06:17 1024 30.24 854 25.22 12.3 54.1 82 9.3 48.8 -81.6 -3.213
06:18 1024 30.24 854 25.22 12.4 54.3 81 9.3 48.8 -81.6 -3.213
06:19 1024 30.24 854 25.22 12.5 54.6 81 9.4 48.8 -81.7 -3.217
06:20 1024 30.24 854 25.22 12.6 54.7 80 9.3 48.8 -81.8 -3.22
06:21 1024 30.24 854 25.22 12.7 54.8 80 9.4 48.9 -81.9 -3.224
06:22 1024 30.24 854 25.22 12.7 54.9 80 9.3 48.8 -81.9 -3.224
06:23 1024 30.24 854 25.22 12.8 55.1 79 9.4 48.9 -82 -3.228
06:24 1024 30.24 854 25.22 12.9 55.2 79 9.4 48.9 -82.1 -3.232
06:25 1024 30.24 854 25.22 13 55.3 79 9.4 48.9 -82.1 -3.232
06:26 1024 30.24 854 25.22 13 55.5 79 9.4 49 -82.2 -3.236
06:27 1024 30.24 854 25.22 13.1 55.7 78 9.4 48.9 -82.3 -3.24
06:28 1024 30.24 854 25.22 13.3 55.9 78 9.6 49.2 -82.3 -3.24
06:29 1024 30.24 854 25.22 13.4 56.1 78 9.7 49.4 -82.4 -3.244
06:30 1024 30.24 854 25.22 13.4 56.1 78 9.7 49.4 -82.4 -3.244
06:31 1024 30.24 854 25.22 13.4 56.1 78 9.7 49.5 -82.5 -3.248
06:32 1024 30.24 854 25.22 13.5 56.3 78 9.8 49.7 -82.5 -3.248
06:33 1024 30.24 854 25.22 13.4 56.2 79 9.9 49.8 -82.5 -3.248
06:34 1024 30.24 854 25.22 13.4 56.2 79 10 50 -82.6 -3.252
06:35 1024 30.24 854 25.22 13.4 56.1 80 10 50 -82.6 -3.252
06:36 1024 30.24 854 25.22 13.5 56.2 80 10.1 50.3 -82.6 -3.252
06:37 1024 30.24 854 25.22 13.5 56.3 80 10.2 50.4 -82.6 -3.252
06:38 1024 30.24 854 25.22 13.5 56.4 81 10.4 50.8 -82.6 -3.252
06:39 1024 30.24 854 25.22 13.5 56.4 81 10.3 50.6 -82.6 -3.252
06:40 1024 30.24 854 25.22 13.6 56.4 81 10.4 50.7 -82.6 -3.252
06:41 1025 30.27 854 25.22 13.6 56.6 81 10.5 50.9 -82.6 -3.252
06:42 1025 30.27 854 25.22 13.7 56.6 81 10.5 50.8 -82.6 -3.252
06:43 1025 30.27 854 25.22 13.7 56.7 80 10.5 50.8 -82.6 -3.252
06:44 1025 30.27 854 25.22 13.8 56.8 80 10.5 50.9 -82.6 -3.252
06:45 1025 30.27 854 25.22 13.8 56.9 80 10.4 50.8 -82.6 -3.252
06:46 1025 30.27 854 25.22 13.9 57 79 10.4 50.7 -82.6 -3.252
06:47 1024 30.24 854 25.22 14 57.3 78 10.4 50.7 -82.7 -3.256
06:48 1024 30.24 854 25.22 14.1 57.4 78 10.3 50.6 -82.7 -3.256
06:49 1024 30.24 854 25.22 14.1 57.5 78 10.3 50.6 -82.7 -3.256
06:50 1024 30.24 854 25.22 14.2 57.6 78 10.4 50.7 -82.7 -3.256
06:51 1024 30.24 854 25.22 14.3 57.8 75 10.1 50.1 -82.7 -3.256
06:52 1024 30.24 854 25.22 14.4 57.9 76 10.4 50.6 -82.8 -3.26
06:53 1024 30.24 854 25.22 14.5 58 76 10.3 50.5 -82.8 -3.26
06:54 1024 30.24 854 25.22 14.5 58.2 77 10.6 51.1 -82.8 -3.26
06:55 1024 30.24 854 25.22 14.5 58.2 76 10.5 50.8 -82.8 -3.26
06:56 1024 30.24 854 25.22 14.6 58.3 76 10.4 50.8 -82.8 -3.26
06:57 1024 30.24 854 25.22 14.6 58.4 77 10.8 51.4 -82.8 -3.26
06:58 1024 30.24 854 25.22 14.6 58.3 76 10.5 50.9 -82.8 -3.26
06:59 1024 30.24 854 25.22 14.6 58.3 77 10.7 51.3 -82.9 -3.264
07:00 1024 30.24 854 25.22 14.6 58.3 76 10.5 50.9 -82.9 -3.264
07:01 1025 30.27 854 25.22 14.6 58.2 77 10.7 51.2 -82.9 -3.264
07:02 1025 30.27 854 25.22 14.6 58.3 79 11 51.8 -82.8 -3.26
07:03 1025 30.27 854 25.22 14.6 58.2 78 10.8 51.5 -82.8 -3.26
07:04 1025 30.27 854 25.22 14.5 58.2 79 11 51.8 -82.8 -3.26
07:05 1025 30.27 854 25.22 14.5 58.1 80 11.1 51.9 -82.8 -3.26
07:06 1025 30.27 854 25.22 14.5 58.1 80 11.1 52 -82.8 -3.26
07:07 1025 30.27 854 25.22 14.5 58.2 80 11.1 52 -82.8 -3.26
07:08 1025 30.27 854 25.22 14.6 58.2 79 11 51.9 -82.8 -3.26
07:09 1025 30.27 854 25.22 14.7 58.4 81 11.4 52.5 -82.7 -3.256
07:10 1025 30.27 854 25.22 14.7 58.5 80 11.4 52.5 -82.7 -3.256
07:11 1025 30.27 854 25.22 14.8 58.6 81 11.6 52.8 -82.7 -3.256
07:12 1025 30.27 854 25.22 14.8 58.7 82 11.7 53.1 -82.7 -3.256
07:13 1025 30.27 854 25.22 14.9 58.8 82 11.8 53.2 -82.6 -3.252
07:14 1025 30.27 854 25.22 15 59 83 12.1 53.8 -82.6 -3.252
07:15 1025 30.27 854 25.22 15 59.1 80 11.7 53 -82.5 -3.248
07:16 1025 30.27 854 25.22 15.1 59.1 81 11.8 53.3 -82.5 -3.248
07:17 1025 30.27 854 25.22 15.2 59.3 79 11.6 52.9 -82.5 -3.248
07:18 1025 30.27 854 25.22 15.2 59.4 81 11.9 53.5 -82.5 -3.248
07:19 1025 30.27 854 25.22 15.3 59.5 79 11.7 53.1 -82.4 -3.244
07:20 1025 30.27 854 25.22 15.3 59.6 80 12 53.6 -82.4 -3.244
07:21 1025 30.27 854 25.22 15.4 59.7 79 11.7 53.1 -82.4 -3.244
07:22 1025 30.27 854 25.22 15.4 59.8 80 12 53.5 -82.3 -3.24
07:23 1025 30.27 854 25.22 15.5 59.8 78 11.7 53.1 -82.3 -3.24
07:24 1025 30.27 854 25.22 15.6 60.1 80 12.1 53.9 -82.3 -3.24
07:25 1025 30.27 854 25.22 15.7 60.2 78 11.9 53.4 -82.3 -3.24
07:26 1025 30.27 854 25.22 15.8 60.4 76 11.7 53 -82.2 -3.236
07:27 1025 30.27 854 25.22 15.9 60.6 76 11.8 53.2 -82.2 -3.236
07:28 1025 30.27 854 25.22 16 60.8 79 12.3 54.2 -82.2 -3.236
07:29 1025 30.27 854 25.22 16.1 60.9 74 11.5 52.6 -82.2 -3.236
07:30 1025 30.27 854 25.22 16.2 61.1 73 11.4 52.5 -82.2 -3.236
07:31 1025 30.27 854 25.22 16.3 61.3 73 11.6 52.8 -82.2 -3.236
07:32 1025 30.27 854 25.22 16.3 61.3 73 11.5 52.6 -82.2 -3.236
07:33 1025 30.27 854 25.22 16.4 61.5 71 11.2 52.2 -82.2 -3.236
07:34 1025 30.27 854 25.22 16.5 61.7 73 11.7 53.1 -82.2 -3.236
07:35 1025 30.27 854 25.22 16.6 61.9 72 11.6 52.9 -82.2 -3.236
07:36 1025 30.27 854 25.22 16.7 62.1 73 12 53.6 -82.2 -3.236
07:37 1025 30.27 854 25.22 16.9 62.4 69 11.3 52.3 -82.2 -3.236
07:38 1025 30.27 854 25.22 17 62.5 70 11.4 52.6 -82.2 -3.236
07:39 1025 30.27 854 25.22 17.1 62.7 72 12.1 53.8 -82.2 -3.236
07:40 1025 30.27 854 25.22 17.1 62.8 73 12.2 54 -82.1 -3.232
07:41 1025 30.27 854 25.22 17.2 63 69 11.6 52.8 -82.1 -3.232
07:42 1025 30.27 854 25.22 17.3 63.1 70 11.7 53.1 -82.1 -3.232
07:43 1025 30.27 854 25.22 17.4 63.3 68 11.5 52.8 -82.1 -3.232
07:44 1025 30.27 854 25.22 17.5 63.5 68 11.7 53 -82 -3.228
07:45 1025 30.27 854 25.22 17.6 63.8 68 11.6 52.9 -82 -3.228
07:46 1025 30.27 854 25.22 17.8 64 68 11.8 53.2 -82 -3.228
07:47 1025 30.27 854 25.22 17.8 64.1 69 12.2 53.9 -82 -3.228
07:48 1025 30.27 854 25.22 17.9 64.1 66 11.6 52.9 -81.9 -3.224
07:49 1025 30.27 854 25.22 17.9 64.2 65 11.4 52.5 -81.9 -3.224
07:50 1025 30.27 854 25.22 17.9 64.3 66 11.6 52.9 -81.9 -3.224
07:51 1025 30.27 854 25.22 18 64.5 68 12.1 53.8 -81.8 -3.22
07:52 1025 30.27 854 25.22 18 64.5 65 11.5 52.7 -81.8 -3.22
07:53 1025 30.27 854 25.22 18.1 64.5 70 12.7 54.8 -81.7 -3.217
07:54 1025 30.27 854 25.22 18 64.4 66 11.6 52.9 -81.7 -3.217
07:55 1025 30.27 854 25.22 18 64.3 71 12.7 54.9 -81.7 -3.217
07:56 1025 30.27 854 25.22 18 64.4 65 11.4 52.6 -81.6 -3.213
07:57 1025 30.27 854 25.22 18 64.3 67 11.8 53.2 -81.5 -3.209
07:58 1025 30.27 854 25.22 17.9 64.3 69 12.3 54.2 -81.5 -3.209
07:59 1025 30.27 854 25.22 17.9 64.3 66 11.5 52.7 -81.4 -3.205
08:00 1025 30.27 854 25.22 17.9 64.3 69 12.2 53.9 -81.4 -3.205
08:01 1025 30.27 854 25.22 18 64.4 70 12.5 54.6 -81.3 -3.201
08:02 1025 30.27 854 25.22 18.1 64.5 67 12 53.6 -81.2 -3.197
08:03 1025 30.27 854 25.22 18.1 64.6 67 12 53.7 -81.2 -3.197
08:04 1025 30.27 854 25.22 18.2 64.7 64 11.3 52.4 -81.1 -3.193
08:05 1025 30.27 854 25.22 18.2 64.8 68 12.4 54.3 -81 -3.189
08:06 1025 30.27 854 25.22 18.2 64.8 64 11.4 52.6 -80.9 -3.185
08:07 1025 30.27 854 25.22 18.2 64.8 67 12.1 53.7 -80.9 -3.185
08:08 1025 30.27 854 25.22 18.3 64.9 66 12 53.6 -80.8 -3.181
08:09 1025 30.27 854 25.22 18.3 65 64 11.6 52.8 -80.7 -3.177
08:10 1025 30.27 854 25.22 18.4 65 64 11.6 52.8 -80.7 -3.177
08:11 1025 30.27 854 25.22 18.4 65.1 66 12 53.6 -80.6 -3.173
08:12 1025 30.27 854 25.22 18.5 65.2 69 12.8 55 -80.5 -3.169
08:13 1025 30.27 854 25.22 18.6 65.4 62 11.1 52 -80.5 -3.169
08:14 1025 30.27 854 25.22 18.6 65.4 65 12 53.6 -80.4 -3.165
08:15 1025 30.27 854 25.22 18.6 65.5 68 12.7 54.9 -80.3 -3.161
08:16 1025 30.27 854 25.22 18.7 65.7 65 12.2 53.9 -80.3 -3.161
08:17 1025 30.27 854 25.22 18.8 65.8 64 11.8 53.3 -80.2 -3.157
08:18 1025 30.27 854 25.22 18.8 65.9 63 11.6 52.9 -80.1 -3.154
08:19 1025 30.27 854 25.22 18.8 65.8 61 11.1 52 -80 -3.15
08:20 1025 30.27 854 25.22 18.8 65.8 65 12.1 53.7 -80 -3.15
08:21 1025 30.27 854 25.22 18.8 65.8 65 12.2 54 -79.9 -3.146
08:22 1025 30.27 854 25.22 18.8 65.9 61 11.2 52.2 -79.8 -3.142
08:23 1025 30.27 854 25.22 18.8 65.9 63 11.7 53.1 -79.8 -3.142
08:24 1025 30.27 854 25.22 18.9 65.9 62 11.4 52.6 -79.7 -3.138
08:25 1025 30.27 854 25.22 18.8 65.9 67 12.7 54.8 -79.6 -3.134
08:26 1025 30.27 854 25.22 18.9 66 63 11.9 53.4 -79.5 -3.13
08:27 1025 30.27 854 25.22 18.9 66.1 62 11.7 53 -79.5 -3.13
08:28 1025 30.27 854 25.22 19 66.1 64 12.1 53.8 -79.4 -3.126
08:29 1025 30.27 854 25.22 19 66.2 67 12.7 54.9 -79.4 -3.126
08:30 1025 30.27 854 25.22 19.2 66.6 66 12.7 54.9 -79.3 -3.122
08:31 1025 30.27 854 25.22 19.4 66.9 61 11.7 53.1 -79.2 -3.118
08:32 1025 30.27 854 25.22 19.5 67 64 12.7 54.8 -79.1 -3.114
08:33 1025 30.27 854 25.22 19.6 67.2 60 11.8 53.2 -79 -3.11
08:34 1025 30.27 854 25.22 19.6 67.3 61 12 53.6 -78.9 -3.106
08:35 1025 30.27 854 25.22 19.6 67.4 63 12.4 54.4 -78.8 -3.102
08:36 1025 30.27 854 25.22 19.7 67.4 61 12 53.5 -78.7 -3.098
08:37 1025 30.27 854 25.22 19.6 67.3 65 13 55.4 -78.6 -3.094
08:38 1025 30.27 854 25.22 19.6 67.3 65 13.1 55.5 -78.5 -3.091
08:39 1025 30.27 854 25.22 19.7 67.5 67 13.6 56.4 -78.4 -3.087
08:40 1024 30.24 854 25.22 19.8 67.7 62 12.3 54.2 -78.3 -3.083
08:41 1024 30.24 854 25.22 19.8 67.6 60 11.9 53.4 -78.2 -3.079
08:42 1024 30.24 854 25.22 19.7 67.5 60 11.8 53.2 -78.1 -3.075
08:43 1024 30.24 854 25.22 19.7 67.5 62 12.2 54 -77.9 -3.067
08:44 1024 30.24 854 25.22 19.7 67.4 67 13.5 56.3 -77.8 -3.063
08:45 1025 30.27 854 25.22 19.8 67.6 61 12.2 54 -77.7 -3.059
08:46 1024 30.24 854 25.22 19.9 67.7 64 12.9 55.2 -77.6 -3.055
08:47 1024 30.24 854 25.22 20 67.9 62 12.7 54.8 -77.5 -3.051
08:48 1024 30.24 854 25.22 20 67.9 62 12.7 54.8 -77.4 -3.047
08:49 1024 30.24 854 25.22 20.1 68.1 63 12.9 55.3 -77.3 -3.043
08:50 1024 30.24 854 25.22 20.1 68.2 60 12.3 54.2 -77.1 -3.035
08:51 1025 30.27 854 25.22 20.2 68.3 63 13 55.4 -77 -3.031
08:52 1025 30.27 854 25.22 20.2 68.4 65 13.4 56.2 -76.9 -3.028
08:53 1025 30.27 854 25.22 20.3 68.5 61 12.5 54.5 -76.8 -3.024
08:54 1025 30.27 854 25.22 20.2 68.4 61 12.7 54.8 -76.7 -3.02
08:55 1025 30.27 854 25.22 20.2 68.4 60 12.4 54.3 -76.6 -3.016
08:56 1025 30.27 854 25.22 20.2 68.4 61 12.5 54.5 -76.5 -3.012
08:57 1025 30.27 854 25.22 20.2 68.3 59 12 53.7 -76.4 -3.008
08:58 1025 30.27 854 25.22 20.1 68.2 60 12.2 54 -76.3 -3.004
08:59 1025 30.27 854 25.22 20.1 68.2 64 13.2 55.7 -76.2 -3
09:00 1025 30.27 854 25.22 20.2 68.3 60 12.4 54.3 -76.1 -2.996
09:01 1025 30.27 854 25.22 20.4 68.7 60 12.6 54.6 -76 -2.992
09:02 1025 30.27 854 25.22 20.6 69 62 13.2 55.8 -75.8 -2.984
09:03 1025 30.27 854 25.22 20.6 69.2 63 13.5 56.4 -75.7 -2.98
09:04 1025 30.27 854 25.22 20.7 69.2 60 12.7 54.8 -75.6 -2.976
09:05 1025 30.27 854 25.22 20.7 69.3 57 12 53.6 -75.5 -2.972
09:06 1025 30.27 854 25.22 20.7 69.2 56 11.8 53.2 -75.4 -2.969
09:07 1025 30.27 854 25.22 20.6 69.1 56 11.7 53.1 -75.3 -2.965
09:08 1025 30.27 854 25.22 20.7 69.2 57 12.1 53.7 -75.2 -2.961
09:09 1025 30.27 854 25.22 20.8 69.4 60 13 55.3 -75.1 -2.957
09:10 1025 30.27 854 25.22 20.8 69.5 61 13.2 55.7 -74.9 -2.949
09:11 1025 30.27 854 25.22 20.9 69.6 60 12.9 55.2 -74.8 -2.945
09:12 1025 30.27 854 25.22 20.9 69.6 60 12.9 55.2 -74.7 -2.941
09:13 1025 30.27 854 25.22 20.8 69.4 60 12.7 54.9 -74.6 -2.937
09:14 1025 30.27 854 25.22 20.8 69.4 59 12.5 54.5 -74.5 -2.933
09:15 1025 30.27 854 25.22 20.8 69.5 60 12.9 55.2 -74.3 -2.925
09:16 1025 30.27 854 25.22 20.9 69.7 62 13.5 56.2 -74.2 -2.921
09:17 1024 30.24 854 25.22 21.1 69.9 59 12.9 55.2 -74.1 -2.917
09:18 1024 30.24 854 25.22 21.1 69.9 58 12.5 54.5 -73.9 -2.909
09:19 1024 30.24 854 25.22 21 69.8 58 12.5 54.5 -73.8 -2.906
09:20 1024 30.24 854 25.22 21 69.8 58 12.7 54.8 -73.7 -2.902
09:21 1024 30.24 854 25.22 21 69.7 57 12.3 54.2 -73.5 -2.894
09:22 1024 30.24 854 25.22 20.9 69.6 58 12.5 54.5 -73.4 -2.89
09:23 1024 30.24 854 25.22 21 69.7 58 12.5 54.6 -73.3 -2.886
09:24 1024 30.24 854 25.22 20.9 69.7 57 12.3 54.1 -73.2 -2.882
09:25 1024 30.24 854 25.22 21 69.8 60 13.1 55.6 -73 -2.874
09:26 1024 30.24 854 25.22 21.1 70 58 12.7 54.9 -72.9 -2.87
09:27 1024 30.24 854 25.22 21.2 70.1 57 12.4 54.3 -72.8 -2.866
09:28 1024 30.24 854 25.22 21.3 70.3 56 12.3 54.2 -72.7 -2.862
09:29 1024 30.24 854 25.22 21.5 70.7 59 13.3 56 -72.6 -2.858
09:30 1024 30.24 854 25.22 21.6 70.9 58 13.1 55.7 -72.4 -2.85
09:31 1024 30.24 854 25.22 21.7 71.1 57 13.1 55.5 -72.3 -2.846
09:32 1024 30.24 854 25.22 21.8 71.2 58 13.3 56 -72.2 -2.843
09:33 1024 30.24 854 25.22 21.9 71.5 57 13.1 55.6 -72.1 -2.839
09:34 1024 30.24 854 25.22 21.9 71.4 54 12.3 54.2 -72.1 -2.839
09:35 1024 30.24 854 25.22 21.7 71.1 56 12.6 54.6 -72 -2.835
09:36 1024 30.24 854 25.22 21.6 70.8 63 14.3 57.7 -71.8 -2.827
09:37 1024 30.24 854 25.22 21.7 71 62 14.1 57.3 -71.6 -2.819
09:38 1024 30.24 854 25.22 21.7 71.1 55 12.4 54.2 -71.5 -2.815
09:39 1024 30.24 854 25.22 21.7 71 54 12.1 53.8 -71.4 -2.811
09:40 1024 30.24 854 25.22 21.6 70.8 61 13.9 57 -71.3 -2.807
09:41 1024 30.24 854 25.22 21.6 70.9 55 12.3 54.2 -71.1 -2.799
09:42 1024 30.24 853 25.19 21.6 70.9 60 13.6 56.5 -71 -2.795
09:43 1024 30.24 853 25.19 21.6 70.9 57 12.8 55 -70.8 -2.787
09:44 1024 30.24 854 25.22 21.7 71.1 57 12.9 55.3 -70.7 -2.783
09:45 1024 30.24 854 25.22 21.7 71.1 55 12.5 54.5 -70.5 -2.776
09:46 1024 30.24 853 25.19 21.8 71.2 60 13.7 56.6 -70.4 -2.772
09:47 1024 30.24 854 25.22 21.9 71.4 56 12.9 55.2 -70.2 -2.764
09:48 1024 30.24 853 25.19 21.8 71.3 54 12.3 54.1 -70.1 -2.76
09:49 1024 30.24 853 25.19 21.7 71 54 12.2 53.9 -69.99 -2.756
09:50 1024 30.24 853 25.19 21.6 70.9 55 12.2 54 -69.83 -2.749
09:51 1024 30.24 853 25.19 21.6 70.9 62 14.2 57.5 -69.66 -2.743
09:52 1024 30.24 853 25.19 21.7 71.1 55 12.5 54.6 -69.55 -2.738
09:53 1024 30.24 853 25.19 21.7 71.1 56 12.8 55 -69.39 -2.732
09:54 1024 30.24 853 25.19 21.7 71 55 12.4 54.4 -69.21 -2.725
09:55 1024 30.24 853 25.19 21.6 70.9 54 12.2 53.9 -69.05 -2.719
09:56 1024 30.24 853 25.19 21.5 70.7 60 13.5 56.3 -68.9 -2.713
09:57 1024 30.24 853 25.19 21.6 70.8 55 12.2 54 -68.74 -2.706
09:58 1024 30.24 853 25.19 21.6 70.9 55 12.3 54.2 -68.6 -2.701
09:59 1024 30.24 853 25.19 21.7 71 53 11.7 53.1 -68.47 -2.696
10:00 1024 30.24 853 25.19 21.6 70.9 58 13 55.4 -68.32 -2.69
10:01 1024 30.24 853 25.19 21.7 71 55 12.3 54.2 -68.17 -2.684
10:02 1024 30.24 853 25.19 21.7 71.1 56 12.8 55.1 -68.01 -2.678
10:03 1024 30.24 853 25.19 21.7 71.1 55 12.5 54.6 -67.87 -2.672
10:04 1024 30.24 853 25.19 21.7 71 55 12.3 54.1 -67.71 -2.666
10:05 1024 30.24 853 25.19 21.6 70.9 55 12.4 54.3 -67.57 -2.66
10:06 1024 30.24 853 25.19 21.7 71 58 13.2 55.8 -67.42 -2.654
10:07 1024 30.24 853 25.19 21.7 71.1 58 13.1 55.6 -67.29 -2.649
10:08 1024 30.24 853 25.19 21.8 71.3 57 13.1 55.6 -67.14 -2.643
10:09 1024 30.24 853 25.19 21.9 71.4 53 12.1 53.8 -66.96 -2.636
10:10 1024 30.24 853 25.19 21.9 71.5 60 13.8 56.9 -66.79 -2.63
10:11 1024 30.24 853 25.19 22 71.5 52 11.8 53.2 -66.64 -2.624
10:12 1024 30.24 853 25.19 21.9 71.4 53 12.2 53.9 -66.53 -2.619
10:13 1024 30.24 853 25.19 21.9 71.4 54 12.3 54.1 -66.39 -2.614
10:14 1024 30.24 853 25.19 22 71.6 58 13.4 56.1 -66.22 -2.607
10:15 1024 30.24 853 25.19 22.1 71.7 55 12.8 55.1 -66.09 -2.602
10:16 1024 30.24 853 25.19 22.2 72 53 12.4 54.4 -65.97 -2.597
10:17 1024 30.24 853 25.19 22.3 72.1 56 13.2 55.7 -65.77 -2.589
10:18 1024 30.24 853 25.19 22.3 72.2 54 12.6 54.7 -65.59 -2.582
10:19 1024 30.24 853 25.19 22.3 72.1 56 13.2 55.7 -65.45 -2.577
10:20 1024 30.24 853 25.19 22.4 72.2 55 13 55.3 -65.31 -2.571
10:21 1024 30.24 853 25.19 22.5 72.4 51 12.1 53.7 -65.17 -2.566
10:22 1024 30.24 853 25.19 22.5 72.5 54 12.9 55.2 -65 -2.559
10:23 1024 30.24 853 25.19 22.5 72.6 50 11.7 53 -64.82 -2.552
10:24 1024 30.24 853 25.19 22.6 72.7 51 12.3 54.1 -64.65 -2.545
10:25 1024 30.24 853 25.19 22.5 72.5 56 13.3 55.9 -64.5 -2.539
10:26 1024 30.24 853 25.19 22.4 72.3 54 12.7 54.8 -64.35 -2.533
10:27 1024 30.24 853 25.19 22.4 72.2 51 12 53.6 -64.19 -2.527
10:28 1024 30.24 853 25.19 22.3 72.1 56 13.2 55.7 -64.04 -2.521
10:29 1024 30.24 853 25.19 22.3 72.1 51 11.8 53.3 -63.9 -2.516
10:30 1024 30.24 853 25.19 22.3 72.1 51 11.8 53.3 -63.76 -2.51
10:31 1024 30.24 853 25.19 22.3 72.1 51 11.9 53.5 -63.62 -2.505
10:32 1024 30.24 853 25.19 22.3 72.2 51 11.9 53.4 -63.47 -2.499
10:33 1024 30.24 853 25.19 22.4 72.4 55 13.2 55.7 -63.35 -2.494
10:34 1024 30.24 853 25.19 22.5 72.5 52 12.3 54.1 -63.23 -2.489
10:35 1024 30.24 853 25.19 22.5 72.6 50 11.9 53.3 -63.1 -2.484
10:36 1024 30.24 853 25.19 22.5 72.6 50 11.9 53.4 -62.98 -2.48
10:37 1024 30.24 853 25.19 22.6 72.6 50 11.7 53.1 -62.84 -2.474
10:38 1024 30.24 853 25.19 22.7 72.9 50 11.9 53.4 -62.68 -2.468
10:39 1024 30.24 853 25.19 22.9 73.3 54 13.2 55.7 -62.5 -2.461
10:40 1024 30.24 853 25.19 23 73.3 47 11.4 52.5 -62.35 -2.455
10:41 1024 30.24 853 25.19 22.9 73.2 51 12.5 54.4 -62.26 -2.451
10:42 1024 30.24 853 25.19 22.9 73.2 48 11.4 52.5 -62.11 -2.445
10:43 1024 30.24 853 25.19 22.8 73 49 11.6 53 -61.97 -2.44
10:44 1024 30.24 853 25.19 22.8 73 47 11.1 51.9 -61.82 -2.434
10:45 1024 30.24 853 25.19 22.8 73 49 11.7 53.1 -61.68 -2.428
10:46 1024 30.24 853 25.19 22.9 73.2 56 13.8 56.8 -61.51 -2.422
10:47 1024 30.24 853 25.19 23 73.3 47 11.4 52.5 -61.35 -2.415
10:48 1024 30.24 853 25.19 23 73.3 54 13.3 55.9 -61.22 -2.41
10:49 1024 30.24 853 25.19 23.1 73.6 48 11.7 53.1 -61.07 -2.404
10:50 1024 30.24 853 25.19 23.1 73.6 51 12.6 54.6 -60.93 -2.399
10:51 1024 30.24 853 25.19 23.1 73.7 48 11.7 53.1 -60.75 -2.392
10:52 1024 30.24 853 25.19 23.1 73.5 47 11.5 52.6 -60.59 -2.385
10:53 1024 30.24 853 25.19 23 73.4 47 11.3 52.4 -60.43 -2.379
10:54 1024 30.24 853 25.19 23.2 73.7 49 12 53.6 -60.26 -2.372
10:55 1024 30.24 853 25.19 23.3 74 47 11.4 52.6 -60.05 -2.364
10:56 1024 30.24 853 25.19 23.4 74.1 49 12.3 54.1 -59.89 -2.358
10:57 1024 30.24 853 25.19 23.5 74.4 45 11.1 52 -59.72 -2.351
10:58 1024 30.24 853 25.19 23.7 74.6 44 10.9 51.7 -59.55 -2.344
10:59 1024 30.24 853 25.19 23.7 74.7 46 11.6 52.9 -59.31 -2.335
11:00 1024 30.24 853 25.19 23.8 74.9 45 11.3 52.3 -59.12 -2.328
11:01 1024 30.24 853 25.19 23.9 75.1 47 12.2 54 -58.94 -2.32
11:02 1024 30.24 853 25.19 24.1 75.3 54 14.2 57.6 -58.78 -2.314
11:03 1024 30.24 853 25.19 24.2 75.6 46 11.9 53.5 -58.61 -2.307
11:04 1024 30.24 853 25.19 24.4 75.8 44 11.7 53 -58.41 -2.3
11:05 1024 30.24 853 25.19 24.3 75.8 44 11.4 52.4 -58.21 -2.292
11:06 1024 30.24 853 25.19 24.4 76 47 12.6 54.7 -58.02 -2.284
11:07 1024 30.24 853 25.19 24.5 76 45 11.9 53.5 -57.81 -2.276
11:08 1024 30.24 853 25.19 24.3 75.7 47 12.5 54.5 -57.63 -2.269
11:09 1024 30.24 853 25.19 24 75.2 48 12.4 54.4 -57.48 -2.263
11:10 1024 30.24 853 25.19 23.8 74.8 49 12.4 54.4 -57.3 -2.256
11:11 1024 30.24 853 25.19 23.6 74.4 45 11.2 52.1 -57.11 -2.248
11:12 1024 30.24 853 25.19 23.4 74.2 46 11.2 52.1 -56.94 -2.242
11:13 1024 30.24 853 25.19 23.4 74 45 11 51.8 -56.74 -2.234
11:14 1024 30.24 853 25.19 23.3 74 44 10.6 51 -56.56 -2.227
11:15 1024 30.24 853 25.19 23.3 74 48 11.9 53.5 -56.37 -2.219
11:16 1024 30.24 853 25.19 23.4 74.2 50 12.5 54.4 -56.18 -2.212
11:17 1024 30.24 853 25.19 23.4 74.2 48 12 53.7 -56.01 -2.205
11:18 1024 30.24 853 25.19 23.3 74 49 12.1 53.8 -55.84 -2.198
11:19 1024 30.24 853 25.19 23.3 74 47 11.5 52.8 -55.66 -2.191
11:20 1024 30.24 853 25.19 23.3 74 46 11.3 52.4 -55.49 -2.185
11:21 1024 30.24 853 25.19 23.3 74 47 11.6 52.9 -55.29 -2.177
11:22 1024 30.24 853 25.19 23.4 74.2 47 11.7 53.1 -55.08 -2.169
11:23 1024 30.24 853 25.19 23.6 74.4 48 12.2 54 -54.91 -2.162
11:24 1024 30.24 853 25.19 23.7 74.6 46 11.6 53 -54.75 -2.156
11:25 1024 30.24 853 25.19 23.8 74.8 48 12.3 54.1 -54.59 -2.149
11:26 1024 30.24 853 25.19 23.8 74.9 47 12.1 53.8 -54.46 -2.144
11:27 1024 30.24 853 25.19 23.8 74.8 47 12 53.7 -54.33 -2.139
11:28 1024 30.24 853 25.19 23.8 74.8 47 12.1 53.9 -54.18 -2.133
11:29 1024 30.24 853 25.19 23.8 74.8 46 11.6 52.9 -54.05 -2.128
11:30 1024 30.24 853 25.19 23.6 74.6 43 10.7 51.2 -53.92 -2.123
11:31 1024 30.24 853 25.19 23.6 74.5 48 12 53.7 -53.72 -2.115
11:32 1024 30.24 853 25.19 23.7 74.7 48 12.3 54.1 -53.53 -2.107
11:33 1024 30.24 853 25.19 23.8 74.8 47 12 53.6 -53.36 -2.101
11:34 1024 30.24 853 25.19 23.9 75.1 47 12.2 54 -53.22 -2.095
11:35 1024 30.24 853 25.19 23.9 75 47 12.1 53.7 -53.09 -2.09
11:36 1024 30.24 853 25.19 23.9 74.9 51 13.1 55.6 -52.95 -2.085
11:37 1024 30.24 853 25.19 24 75.2 46 11.9 53.5 -52.8 -2.079
11:38 1024 30.24 853 25.19 24 75.2 47 12.3 54.1 -52.67 -2.074
11:39 1024 30.24 853 25.19 24.1 75.4 50 13.3 56 -52.52 -2.068
11:40 1024 30.24 853 25.19 24.2 75.6 49 13.1 55.5 -52.33 -2.06
11:41 1024 30.24 853 25.19 24.3 75.8 47 12.4 54.3 -52.2 -2.055
11:42 1024 30.24 853 25.19 24.4 75.8 46 12.3 54.2 -52.09 -2.051
11:43 1024 30.24 853 25.19 24.4 75.9 46 12.3 54.1 -51.96 -2.046
11:44 1024 30.24 853 25.19 24.4 76 46 12.2 53.9 -51.8 -2.039
11:45 1024 30.24 853 25.19 24.5 76 49 13.3 55.9 -51.66 -2.034
11:46 1024 30.24 853 25.19 24.4 76 45 12 53.6 -51.55 -2.03
11:47 1024 30.24 853 25.19 24.4 76 42 10.8 51.5 -51.43 -2.025
11:48 1024 30.24 853 25.19 24.3 75.7 41 10.4 50.6 -51.31 -2.02
11:49 1024 30.24 853 25.19 24.3 75.7 43 11.1 52 -51.15 -2.014
11:50 1024 30.24 853 25.19 24.3 75.8 41 10.6 51 -51 -2.008
11:51 1024 30.24 853 25.19 24.3 75.7 49 13.1 55.6 -50.84 -2.002
11:52 1024 30.24 853 25.19 24.4 75.9 43 11.2 52.2 -50.68 -1.995
11:53 1024 30.24 853 25.19 24.4 75.9 45 11.9 53.5 -50.56 -1.991
11:54 1024 30.24 853 25.19 24.5 76.2 47 12.7 54.9 -50.45 -1.986
11:55 1024 30.24 853 25.19 24.7 76.4 44 11.8 53.2 -50.3 -1.98
11:56 1024 30.24 853 25.19 24.8 76.7 45 12.4 54.3 -50.14 -1.974
11:57 1024 30.24 853 25.19 25 77 45 12.5 54.5 -49.97 -1.967
11:58 1024 30.24 853 25.19 25.2 77.4 45 12.5 54.5 -49.79 -1.96
11:59 1024 30.24 853 25.19 25.3 77.5 45 12.7 54.8 -49.69 -1.956
12:00 1024 30.24 853 25.19 25.1 77.2 42 11.7 53 -49.58 -1.952
12:01 1024 30.24 853 25.19 25 76.9 42 11.5 52.7 -49.46 -1.947
12:02 1024 30.24 853 25.19 24.9 76.8 40 10.7 51.2 -49.32 -1.942
12:03 1024 30.24 853 25.19 24.7 76.5 43 11.5 52.8 -49.19 -1.937
12:04 1024 30.24 853 25.19 24.6 76.3 41 10.7 51.2 -49.05 -1.931
12:05 1024 30.24 853 25.19 24.5 76.1 42 10.9 51.7 -48.91 -1.926
12:06 1024 30.24 853 25.19 24.5 76.1 42 10.8 51.4 -48.79 -1.921
12:07 1024 30.24 853 25.19 24.5 76.1 40 10.4 50.6 -48.64 -1.915
12:08 1024 30.24 853 25.19 24.6 76.3 44 11.8 53.3 -48.46 -1.908
12:09 1024 30.24 853 25.19 24.7 76.5 41 10.8 51.5 -48.34 -1.903
12:10 1024 30.24 853 25.19 24.7 76.4 40 10.5 50.8 -48.21 -1.898
12:11 1024 30.24 853 25.19 24.6 76.4 43 11.4 52.5 -48.08 -1.893
12:12 1024 30.24 853 25.19 24.6 76.3 43 11.4 52.4 -47.92 -1.887
12:13 1024 30.24 853 25.19 24.7 76.5 44 12 53.5 -47.77 -1.881
12:14 1024 30.24 853 25.19 24.9 76.8 46 12.7 54.8 -47.65 -1.876
12:15 1024 30.24 853 25.19 25.1 77.1 46 12.9 55.1 -47.52 -1.871
12:16 1024 30.24 853 25.19 25.3 77.5 38 10.1 50.2 -47.41 -1.867
12:17 1024 30.24 853 25.19 25.2 77.3 39 10.6 51 -47.28 -1.861
12:18 1024 30.24 853 25.19 25.2 77.3 43 12 53.6 -47.13 -1.856
12:19 1024 30.24 853 25.19 25.1 77.3 40 10.8 51.5 -46.99 -1.85
12:20 1024 30.24 853 25.19 25.1 77.1 44 12.3 54.1 -46.87 -1.845
12:21 1024 30.24 853 25.19 25.1 77.2 40 10.9 51.7 -46.76 -1.841
12:22 1024 30.24 853 25.19 25.2 77.4 45 12.7 54.9 -46.61 -1.835
12:23 1024 30.24 853 25.19 25.4 77.6 43 12.2 53.9 -46.5 -1.831
12:24 1024 30.24 853 25.19 25.3 77.5 46 12.9 55.3 -46.64 -1.836
12:25 1024 30.24 853 25.19 25.3 77.5 46 12.9 55.3 -46.36 -1.825
12:26 1024 30.24 853 25.19 25.4 77.7 40 10.9 51.6 -46.19 -1.819
12:27 1024 30.24 853 25.19 25.5 78 46 13.1 55.6 -46.06 -1.813
12:28 1024 30.24 853 25.19 25.6 78.2 38 10.5 50.9 -46.16 -1.817
12:29 1024 30.24 853 25.19 25.5 78 39 10.9 51.7 -45.9 -1.807
12:30 1024 30.24 853 25.19 25.4 77.7 46 13.2 55.7 -45.73 -1.8
12:31 1024 30.24 853 25.19 25.4 77.7 38 10.1 50.2 -45.62 -1.796
12:32 1024 30.24 853 25.19 25.2 77.4 41 11.4 52.4 -45.55 -1.793
12:33 1024 30.24 853 25.19 25.2 77.4 42 11.7 53.1 -45.45 -1.789
12:34 1024 30.24 853 25.19 25.2 77.3 41 11.2 52.1 -45.36 -1.786
12:35 1024 30.24 853 25.19 25.1 77.2 37 9.7 49.5 -45.29 -1.783
12:36 1024 30.24 853 25.19 24.9 76.9 39 10.1 50.2 -45.2 -1.78
12:37 1024 30.24 853 25.19 24.9 76.8 38 9.9 49.8 -45.1 -1.776
12:38 1024 30.24 853 25.19 24.9 76.7 40 10.6 51 -44.99 -1.771
12:39 1024 30.24 853 25.19 24.9 76.9 39 10.3 50.5 -44.89 -1.767
12:40 1024 30.24 853 25.19 25.1 77.1 37 9.7 49.4 -44.8 -1.764
12:41 1024 30.24 853 25.19 25.1 77.2 40 10.8 51.5 -44.71 -1.76
12:42 1024 30.24 853 25.19 25.1 77.2 39 10.6 51 -44.65 -1.758
12:43 1024 30.24 853 25.19 25.1 77.2 39 10.5 50.9 -44.59 -1.756
12:44 1024 30.24 853 25.19 25.2 77.4 40 11 51.7 -44.49 -1.752
12:45 1024 30.24 853 25.19 25.3 77.6 40 11.1 51.9 -44.43 -1.749
12:46 1024 30.24 853 25.19 25.3 77.6 39 10.5 50.9 -44.41 -1.748
12:47 1024 30.24 853 25.19 25.4 77.8 41 11.6 52.8 -44.41 -1.748
12:48 1024 30.24 853 25.19 25.6 78.1 40 11.1 52.1 -44.2 -1.74
12:49 1023 30.21 853 25.19 25.6 78 39 10.8 51.5 -44.15 -1.738
12:50 1023 30.21 853 25.19 25.6 78.1 35 9.5 49 -44.05 -1.734
12:51 1023 30.21 853 25.19 25.7 78.2 37 10.2 50.4 -44.03 -1.733
12:52 1023 30.21 853 25.19 25.7 78.2 37 10 50 -43.97 -1.731
12:53 1023 30.21 853 25.19 25.8 78.5 43 12.4 54.3 -43.89 -1.728
12:54 1023 30.21 853 25.19 25.8 78.5 36 9.8 49.7 -43.79 -1.724
12:55 1023 30.21 853 25.19 25.8 78.4 37 10.1 50.1 -43.74 -1.722
12:56 1023 30.21 853 25.19 25.7 78.3 37 10.2 50.3 -43.7 -1.72
12:57 1023 30.21 853 25.19 25.6 78.1 36 9.5 49.2 -43.66 -1.719
12:58 1023 30.21 853 25.19 25.7 78.2 32 8.1 46.6 -43.57 -1.715
12:59 1023 30.21 853 25.19 25.6 78.1 35 9.4 49 -43.53 -1.714
13:00 1023 30.21 853 25.19 25.6 78.1 38 10.4 50.8 -43.42 -1.709
13:01 1023 30.21 853 25.19 25.9 78.6 31 7.6 45.7 -43.28 -1.704
13:02 1023 30.21 853 25.19 25.8 78.5 32 8.3 47 -43.23 -1.702
13:03 1023 30.21 853 25.19 25.7 78.2 36 9.7 49.5 -43.18 -1.7
13:04 1023 30.21 853 25.19 25.8 78.4 32 7.9 46.3 -43.13 -1.698
13:05 1023 30.21 853 25.19 26 78.7 30 7.4 45.4 -43.05 -1.695
13:06 1023 30.21 852 25.16 26.1 78.9 34 9.3 48.8 -42.97 -1.692
13:07 1023 30.21 852 25.16 26.1 78.9 33 8.7 47.6 -42.88 -1.688
13:08 1023 30.21 852 25.16 26 78.7 38 10.6 51.1 -42.83 -1.686
13:09 1023 30.21 852 25.16 26.2 79.1 39 11.6 52.8 -42.75 -1.683
13:10 1023 30.21 852 25.16 26.2 79.2 34 9.4 48.9 -42.74 -1.683
13:11 1023 30.21 852 25.16 26.2 79.1 37 10.6 51.1 -42.7 -1.681
13:12 1023 30.21 852 25.16 26.1 79 34 9.1 48.4 -42.65 -1.679
13:13 1023 30.21 852 25.16 26 78.8 33 8.6 47.4 -42.58 -1.676
13:14 1023 30.21 852 25.16 26.1 79 33 8.8 47.9 -42.49 -1.673
13:15 1023 30.21 852 25.16 26.2 79.2 35 9.7 49.5 -42.39 -1.669
13:16 1023 30.21 852 25.16 26.4 79.6 34 9.7 49.4 -42.31 -1.666
13:17 1023 30.21 852 25.16 26.6 79.8 37 11 51.8 -42.46 -1.672
13:18 1023 30.21 852 25.16 26.5 79.8 35 10 49.9 -42.34 -1.667
13:19 1023 30.21 852 25.16 26.3 79.4 33 9.1 48.5 -42.27 -1.664
13:20 1023 30.21 852 25.16 26.3 79.3 34 9.2 48.6 -42.2 -1.661
13:21 1023 30.21 852 25.16 26.2 79.1 35 9.8 49.7 -42.13 -1.659
13:22 1023 30.21 852 25.16 26.1 79 33 8.7 47.6 -42.05 -1.656
13:23 1023 30.21 852 25.16 26.1 79 35 9.9 49.7 -41.98 -1.653
13:24 1023 30.21 852 25.16 26.2 79.1 38 10.8 51.5 -41.9 -1.65
13:25 1023 30.21 852 25.16 26.3 79.3 36 10.4 50.8 -41.84 -1.647
13:26 1023 30.21 852 25.16 26.4 79.5 33 9.3 48.7 -41.79 -1.645
13:27 1023 30.21 852 25.16 26.5 79.7 33 9 48.2 -41.74 -1.643
13:28 1023 30.21 852 25.16 26.5 79.7 32 8.6 47.6 -41.69 -1.641
13:29 1023 30.21 852 25.16 26.4 79.6 34 9.4 48.9 -41.65 -1.64
13:30 1023 30.21 852 25.16 26.3 79.4 39 11.6 52.8 -41.61 -1.638
13:31 1023 30.21 852 25.16 26.3 79.4 33 9.2 48.6 -41.55 -1.636
13:32 1023 30.21 852 25.16 26.3 79.4 32 8.5 47.3 -41.5 -1.634
13:33 1023 30.21 852 25.16 26.3 79.3 35 9.7 49.5 -41.46 -1.632
13:34 1023 30.21 852 25.16 26.2 79.2 40 11.8 53.2 -41.38 -1.629
13:35 1023 30.21 852 25.16 26.4 79.6 34 9.4 49 -41.32 -1.627
13:36 1023 30.21 852 25.16 26.4 79.5 31 8.3 47 -41.29 -1.626
13:37 1023 30.21 852 25.16 26.4 79.5 33 9 48.1 -41.22 -1.623
13:38 1023 30.21 852 25.16 26.4 79.6 33 9.2 48.6 -41.16 -1.62
13:39 1023 30.21 852 25.16 26.5 79.6 33 9 48.2 -41.15 -1.62
13:40 1023 30.21 852 25.16 26.5 79.6 31 8.2 46.8 -41.12 -1.619
13:41 1023 30.21 852 25.16 26.5 79.6 32 8.9 48 -41.07 -1.617
13:42 1023 30.21 852 25.16 26.5 79.7 31 8.5 47.2 -41 -1.614
13:43 1023 30.21 852 25.16 26.5 79.7 36 10.5 51 -40.95 -1.612
13:44 1023 30.21 852 25.16 26.6 79.8 36 10.4 50.6 -40.93 -1.611
13:45 1023 30.21 852 25.16 26.6 80 33 9.1 48.4 -40.94 -1.612
13:46 1023 30.21 852 25.16 26.6 79.8 33 9.2 48.6 -40.9 -1.61
13:47 1023 30.21 852 25.16 26.6 80 29 7.6 45.7 -40.84 -1.608
13:48 1023 30.21 852 25.16 26.6 79.8 35 10.2 50.3 -40.81 -1.607
13:49 1023 30.21 852 25.16 26.5 79.8 31 8.1 46.7 -40.78 -1.606
13:50 1023 30.21 852 25.16 26.5 79.6 30 7.7 45.9 -40.73 -1.604
13:51 1023 30.21 852 25.16 26.4 79.6 31 8 46.5 -40.68 -1.602
13:52 1023 30.21 852 25.16 26.5 79.6 33 8.9 48.1 -40.63 -1.6
13:53 1023 30.21 852 25.16 26.7 80.1 29 7.7 45.9 -40.55 -1.596
13:54 1023 30.21 852 25.16 26.8 80.2 32 8.9 48 -40.52 -1.595
13:55 1023 30.21 852 25.16 26.8 80.2 30 8.1 46.6 -40.48 -1.594
13:56 1023 30.21 852 25.16 26.9 80.5 33 9.4 48.9 -40.41 -1.591
13:57 1023 30.21 852 25.16 27.1 80.7 36 11 51.8 -40.36 -1.589
13:58 1023 30.21 852 25.16 27.1 80.8 32 9.4 48.8 -40.36 -1.589
13:59 1023 30.21 852 25.16 27.1 80.7 32 9 48.3 -40.37 -1.589
14:00 1023 30.21 852 25.16 27 80.7 32 9 48.3 -40.31 -1.587
14:01 1023 30.21 852 25.16 27 80.7 33 9.6 49.3 -40.29 -1.586
14:02 1023 30.21 852 25.16 27 80.7 32 9.2 48.5 -40.21 -1.583
14:03 1023 30.21 852 25.16 27.1 80.7 35 10.6 51 -40.12 -1.58
14:04 1023 30.21 852 25.16 27.1 80.8 35 10.6 51.1 -40.07 -1.578
14:05 1023 30.21 852 25.16 27.2 80.9 33 9.9 49.7 -40.05 -1.577
14:06 1023 30.21 852 25.16 27.3 81.1 33 9.8 49.6 -40.01 -1.575
14:07 1023 30.21 852 25.16 27.3 81.2 35 10.8 51.4 -39.94 -1.572
14:08 1023 30.21 852 25.16 27.5 81.4 30 8.5 47.3 -39.87 -1.57
14:09 1023 30.21 852 25.16 27.4 81.4 33 10.2 50.4 -39.79 -1.567
14:10 1023 30.21 852 25.16 27.4 81.4 33 9.8 49.6 -39.72 -1.564
14:11 1023 30.21 852 25.16 27.5 81.5 39 12.7 54.9 -39.61 -1.559
14:12 1023 30.21 852 25.16 27.6 81.7 35 11 51.8 -39.55 -1.557
14:13 1023 30.21 852 25.16 27.5 81.5 34 10.3 50.6 -39.53 -1.556
14:14 1023 30.21 852 25.16 27.2 81 33 9.8 49.6 -39.46 -1.554
14:15 1023 30.21 852 25.16 27.2 80.9 32 9.4 48.9 -39.35 -1.549
14:16 1023 30.21 852 25.16 27.1 80.9 34 10 50.1 -39.27 -1.546
14:17 1023 30.21 852 25.16 27.1 80.8 32 9.2 48.6 -39.22 -1.544
14:18 1023 30.21 852 25.16 27 80.6 36 10.8 51.5 -39.13 -1.541
14:19 1023 30.21 852 25.16 27.1 80.7 34 10.3 50.6 -39.14 -1.541
14:20 1023 30.21 852 25.16 27 80.6 33 9.5 49.2 -39.02 -1.536
14:21 1023 30.21 852 25.16 27.1 80.7 30 8.5 47.3 -38.91 -1.532
14:22 1023 30.21 852 25.16 27.1 80.7 32 9.1 48.4 -38.83 -1.529
14:23 1023 30.21 852 25.16 27.1 80.8 30 8.4 47.1 -38.73 -1.525
14:24 1023 30.21 852 25.16 27.2 80.9 34 10.4 50.7 -38.65 -1.522
14:25 1023 30.21 852 25.16 27.2 81 32 9.3 48.8 -38.53 -1.517
14:26 1023 30.21 852 25.16 27.4 81.3 33 9.8 49.6 -38.4 -1.512
14:27 1023 30.21 852 25.16 27.5 81.5 31 9.2 48.5 -38.33 -1.509
14:28 1023 30.21 852 25.16 27.5 81.4 32 9.8 49.6 -38.27 -1.507
14:29 1023 30.21 852 25.16 27.4 81.3 33 10.1 50.2 -38.29 -1.507
14:30 1023 30.21 852 25.16 27.4 81.3 29 8.3 47 -38.25 -1.506
14:31 1022 30.18 852 25.16 27.4 81.2 34 10.6 51 -38.13 -1.501
14:32 1022 30.18 852 25.16 27.5 81.5 30 8.8 47.8 -38 -1.496
14:33 1022 30.18 852 25.16 27.4 81.4 31 9.3 48.7 -37.86 -1.491
14:34 1022 30.18 852 25.16 27.5 81.5 32 9.6 49.3 -37.77 -1.487
14:35 1022 30.18 852 25.16 27.5 81.4 34 10.6 51.1 -37.65 -1.482
14:36 1022 30.18 852 25.16 27.4 81.4 38 11.9 53.5 -37.49 -1.476
14:37 1022 30.18 852 25.16 27.6 81.6 34 10.6 51 -37.37 -1.471
14:38 1022 30.18 852 25.16 27.6 81.7 38 12.3 54.1 -37.35 -1.47
14:39 1022 30.18 852 25.16 27.7 81.8 34 10.5 50.8 -37.29 -1.468
14:40 1022 30.18 852 25.16 27.6 81.8 32 9.9 49.8 -37.08 -1.46
14:41 1022 30.18 852 25.16 27.5 81.5 38 12.1 53.9 -36.98 -1.456
14:42 1022 30.18 852 25.16 27.5 81.4 36 11.5 52.6 -37 -1.457
14:43 1022 30.18 852 25.16 27.3 81.2 31 8.9 48.1 -36.81 -1.449
14:44 1022 30.18 852 25.16 27.4 81.2 36 11.2 52.2 -36.59 -1.441
14:45 1022 30.18 852 25.16 27.5 81.5 34 10.5 50.9 -36.44 -1.435
14:46 1022 30.18 852 25.16 27.5 81.5 33 10.1 50.2 -36.35 -1.431
14:47 1022 30.18 852 25.16 27.6 81.6 34 10.4 50.7 -36.26 -1.428
14:48 1022 30.18 852 25.16 27.5 81.5 31 9.1 48.4 -36.19 -1.425
14:49 1022 30.18 852 25.16 27.4 81.4 30 8.7 47.6 -36.07 -1.42
14:50 1022 30.18 852 25.16 27.5 81.4 36 11.5 52.7 -35.88 -1.413
14:51 1022 30.18 852 25.16 27.6 81.7 30 8.6 47.5 -35.77 -1.408
14:52 1022 30.18 852 25.16 27.6 81.8 31 9.4 48.9 -35.69 -1.405
14:53 1022 30.18 852 25.16 27.6 81.6 34 10.5 50.9 -35.58 -1.401
14:54 1022 30.18 852 25.16 27.6 81.7 30 8.9 48.1 -35.44 -1.395
14:55 1022 30.18 852 25.16 27.7 81.9 35 11.2 52.2 -35.29 -1.389
14:56 1022 30.18 852 25.16 27.8 82.1 30 9 48.3 -35.15 -1.384
14:57 1022 30.18 852 25.16 27.7 81.8 35 11 51.7 -35.03 -1.379
14:58 1022 30.18 852 25.16 27.5 81.6 33 10 50 -34.91 -1.374
14:59 1022 30.18 852 25.16 27.4 81.4 33 10.2 50.3 -34.8 -1.37
15:00 1022 30.18 852 25.16 27.3 81.2 33 10.1 50.2 -34.67 -1.365
15:01 1022 30.18 852 25.16 27.5 81.4 37 11.8 53.2 -34.56 -1.361
15:02 1022 30.18 852 25.16 27.7 81.9 33 10.1 50.2 -34.46 -1.357
15:03 1022 30.18 852 25.16 27.8 82 31 9.4 48.9 -34.33 -1.352
15:04 1022 30.18 852 25.16 27.7 81.8 29 8.4 47.1 -34.29 -1.35
15:05 1022 30.18 852 25.16 27.5 81.5 30 8.7 47.7 -34.13 -1.344
15:06 1022 30.18 852 25.16 27.5 81.6 33 10 50 -34.01 -1.339
15:07 1022 30.18 851 25.13 27.7 81.8 30 8.6 47.5 -33.93 -1.336
15:08 1022 30.18 852 25.16 27.6 81.7 31 9.3 48.7 -33.84 -1.332
15:09 1022 30.18 851 25.13 27.6 81.7 34 10.7 51.2 -33.73 -1.328
15:10 1022 30.18 851 25.13 27.6 81.7 33 10.2 50.4 -33.9 -1.335
15:11 1022 30.18 851 25.13 27.5 81.5 31 9.2 48.6 -33.5 -1.319
15:12 1022 30.18 852 25.16 27.4 81.3 32 9.4 49 -33.35 -1.313
15:13 1022 30.18 851 25.13 27.4 81.2 34 10.5 50.9 -33.26 -1.309
15:14 1022 30.18 852 25.16 27.4 81.4 33 10.2 50.4 -33.13 -1.304
15:15 1022 30.18 851 25.13 27.5 81.5 30 8.9 48 -33.03 -1.3
15:16 1022 30.18 851 25.13 27.6 81.6 30 8.8 47.8 -32.92 -1.296
15:17 1022 30.18 851 25.13 27.6 81.7 31 9.2 48.5 -32.81 -1.292
15:18 1022 30.18 851 25.13 27.7 81.8 30 8.8 47.9 -32.73 -1.289
15:19 1022 30.18 851 25.13 27.7 81.8 31 9.1 48.5 -32.63 -1.285
15:20 1022 30.18 851 25.13 27.7 81.9 32 9.6 49.2 -32.54 -1.281
15:21 1022 30.18 851 25.13 27.8 82 33 10.1 50.2 -32.45 -1.278
15:22 1022 30.18 851 25.13 27.7 81.9 31 9.5 49 -32.35 -1.274
15:23 1022 30.18 851 25.13 27.7 81.8 31 9.2 48.6 -32.24 -1.269
15:24 1022 30.18 851 25.13 27.6 81.7 30 8.6 47.4 -32.14 -1.265
15:25 1022 30.18 851 25.13 27.6 81.7 33 10 50 -32.02 -1.261
15:26 1022 30.18 851 25.13 27.7 81.9 31 9.6 49.2 -31.88 -1.255
15:27 1022 30.18 851 25.13 27.9 82.3 32 10.2 50.3 -31.78 -1.251
15:28 1022 30.18 851 25.13 28 82.4 32 10.2 50.3 -31.69 -1.248
15:29 1022 30.18 851 25.13 27.9 82.3 29 8.4 47.2 -31.66 -1.246
15:30 1022 30.18 851 25.13 27.8 82 32 9.8 49.6 -31.47 -1.239
15:31 1022 30.18 851 25.13 27.8 82 30 8.9 48.1 -31.32 -1.233
15:32 1022 30.18 851 25.13 27.6 81.8 31 9.4 48.9 -31.2 -1.228
15:33 1022 30.18 851 25.13 27.6 81.7 31 9 48.2 -31.06 -1.223
15:34 1022 30.18 851 25.13 27.7 81.9 32 9.7 49.5 -30.94 -1.218
15:35 1022 30.18 851 25.13 27.9 82.2 30 8.9 48.1 -30.83 -1.214
15:36 1022 30.18 851 25.13 28 82.4 29 8.4 47.2 -30.75 -1.211
15:37 1022 30.18 851 25.13 28.1 82.5 32 9.9 49.8 -30.58 -1.204
15:38 1022 30.18 851 25.13 28.1 82.6 32 10.1 50.3 -30.42 -1.198
15:39 1022 30.18 851 25.13 28 82.4 31 9.4 48.9 -30.36 -1.195
15:40 1022 30.18 851 25.13 27.9 82.2 29 8.7 47.6 -30.25 -1.191
15:41 1022 30.18 851 25.13 27.7 81.9 30 9 48.2 -30.12 -1.186
15:42 1022 30.18 851 25.13 27.7 81.8 29 8.5 47.4 -30 -1.181
15:43 1022 30.18 851 25.13 27.7 81.9 35 11 51.8 -29.87 -1.176
15:44 1022 30.18 851 25.13 27.8 82.1 33 10.4 50.7 -29.72 -1.17
15:45 1022 30.18 851 25.13 28 82.3 29 8.3 47 -29.63 -1.167
15:46 1022 30.18 851 25.13 27.8 82 29 8.6 47.5 -29.53 -1.163
15:47 1022 30.18 851 25.13 27.7 81.9 30 8.9 48.1 -29.35 -1.156
15:48 1022 30.18 851 25.13 27.7 81.9 35 11.3 52.3 -29.17 -1.148
15:49 1022 30.18 851 25.13 27.8 82 33 10.4 50.7 -29 -1.142
15:50 1022 30.18 851 25.13 27.8 82 34 10.6 51 -28.92 -1.139
15:51 1022 30.18 851 25.13 27.7 81.8 32 9.6 49.2 -28.87 -1.137
15:52 1022 30.18 851 25.13 27.7 81.9 38 12.4 54.3 -28.61 -1.126
15:53 1022 30.18 851 25.13 27.9 82.1 32 9.9 49.9 -28.51 -1.122
15:54 1022 30.18 851 25.13 27.9 82.1 31 9.7 49.4 -28.44 -1.12
15:55 1022 30.18 851 25.13 27.8 82 31 9.2 48.5 -28.33 -1.115
15:56 1022 30.18 851 25.13 27.7 81.9 29 8.5 47.4 -28.21 -1.111
15:57 1022 30.18 851 25.13 27.8 82 32 9.9 49.9 -28.07 -1.105
15:58 1022 30.18 851 25.13 27.7 81.9 30 8.8 47.8 -27.98 -1.102
15:59 1022 30.18 851 25.13 27.6 81.8 31 9.2 48.6 -27.92 -1.099
16:00 1022 30.18 851 25.13 27.7 81.9 33 10.3 50.5 -27.81 -1.095
16:01 1022 30.18 851 25.13 27.9 82.2 29 8.6 47.6 -27.71 -1.091
16:02 1022 30.18 851 25.13 28 82.5 30 9.1 48.3 -27.59 -1.086
16:03 1022 30.18 851 25.13 28.1 82.5 31 9.4 48.9 -27.52 -1.083
16:04 1022 30.18 851 25.13 28 82.4 30 9.1 48.3 -27.47 -1.081
16:05 1022 30.18 851 25.13 27.9 82.2 33 10.4 50.7 -27.27 -1.074
16:06 1022 30.18 851 25.13 28 82.4 30 9.1 48.4 -27.2 -1.071
16:07 1022 30.18 851 25.13 28.1 82.5 31 9.4 48.9 -27.16 -1.069
16:08 1022 30.18 851 25.13 28.1 82.6 31 9.7 49.5 -27.07 -1.066
16:09 1022 30.18 851 25.13 28.1 82.6 31 9.8 49.7 -27.06 -1.065
16:10 1022 30.18 851 25.13 28.1 82.6 29 8.5 47.3 -27 -1.063
16:11 1022 30.18 851 25.13 28 82.3 30 8.9 48.1 -26.92 -1.06
16:12 1022 30.18 851 25.13 27.9 82.2 33 10.4 50.6 -26.82 -1.056
16:13 1022 30.18 851 25.13 28 82.3 35 11.4 52.5 -26.71 -1.052
16:14 1022 30.18 851 25.13 28 82.4 33 10.4 50.7 -26.58 -1.046
16:15 1022 30.18 851 25.13 28.1 82.5 34 10.9 51.6 -26.53 -1.044
16:16 1022 30.18 851 25.13 27.9 82.3 36 11.9 53.4 -26.55 -1.045
16:17 1022 30.18 851 25.13 27.9 82.2 30 9.2 48.5 -26.46 -1.042
16:18 1022 30.18 851 25.13 27.8 82.1 33 10.2 50.4 -26.35 -1.037
16:19 1022 30.18 851 25.13 27.9 82.2 32 9.9 49.7 -26.21 -1.032
16:20 1022 30.18 851 25.13 28 82.4 31 9.7 49.4 -26.17 -1.03
16:21 1022 30.18 851 25.13 28 82.4 29 8.6 47.6 -26.13 -1.029
16:22 1022 30.18 851 25.13 27.9 82.2 31 9.3 48.7 -26.09 -1.027
16:23 1022 30.18 851 25.13 27.8 82.1 29 8.4 47.1 -26.04 -1.025
16:24 1022 30.18 851 25.13 27.9 82.1 33 10.5 50.9 -25.89 -1.019
16:25 1022 30.18 851 25.13 27.9 82.2 30 9 48.2 -25.83 -1.017
16:26 1022 30.18 851 25.13 27.9 82.2 31 9.4 49 -25.8 -1.016
16:27 1022 30.18 851 25.13 27.8 82.1 30 8.8 47.9 -25.78 -1.015
16:28 1022 30.18 851 25.13 27.9 82.2 31 9.5 49.1 -25.73 -1.013
16:29 1022 30.18 851 25.13 27.9 82.2 32 10 50.1 -25.65 -1.01
16:30 1022 30.18 851 25.13 27.9 82.2 30 8.8 47.8 -25.58 -1.007
16:31 1022 30.18 851 25.13 27.8 82 32 9.7 49.4 -25.51 -1.004
16:32 1022 30.18 851 25.13 27.8 82.1 29 8.4 47.2 -25.56 -1.006
16:33 1022 30.18 851 25.13 27.9 82.2 30 8.8 47.9 -25.61 -1.008
16:34 1022 30.18 851 25.13 27.8 82 29 8.3 47 -25.47 -1.003
16:35 1022 30.18 851 25.13 27.8 82.1 31 9.3 48.7 -25.3 -0.996
16:36 1022 30.18 851 25.13 28 82.3 29 8.7 47.7 -25.2 -0.992
16:37 1022 30.18 851 25.13 28.1 82.6 30 9.1 48.3 -25.13 -0.989
16:38 1022 30.18 851 25.13 28.2 82.8 32 10.1 50.1 -25.12 -0.989
16:39 1022 30.18 851 25.13 28.3 82.9 28 8.5 47.3 -25.03 -0.985
16:40 1022 30.18 851 25.13 28.3 82.9 30 9.6 49.2 -24.97 -0.983
16:41 1022 30.18 851 25.13 28.2 82.8 30 9.5 49.1 -25 -0.984
16:42 1022 30.18 851 25.13 28 82.5 34 10.8 51.5 -25 -0.984
16:43 1022 30.18 851 25.13 27.9 82.3 31 9.3 48.7 -24.92 -0.981
16:44 1022 30.18 851 25.13 27.9 82.1 29 8.7 47.7 -24.87 -0.979
16:45 1021 30.15 851 25.13 27.8 82 35 11.3 52.4 -24.78 -0.976
16:46 1021 30.15 851 25.13 27.7 81.9 35 11.1 51.9 -24.75 -0.974
16:47 1021 30.15 851 25.13 27.6 81.7 33 10.2 50.4 -24.77 -0.975
16:48 1021 30.15 851 25.13 27.5 81.5 31 9.3 48.7 -24.77 -0.975
16:49 1021 30.15 851 25.13 27.3 81.1 30 8.7 47.7 -24.72 -0.973
16:50 1022 30.18 851 25.13 27.1 80.8 32 9.1 48.5 -24.7 -0.972
16:51 1021 30.15 851 25.13 27.1 80.7 30 8.3 46.9 -24.68 -0.972
16:52 1021 30.15 851 25.13 27.1 80.7 32 9.2 48.5 -24.68 -0.972
16:53 1022 30.18 851 25.13 27.1 80.8 32 9.1 48.4 -24.7 -0.972
16:54 1022 30.18 851 25.13 27.2 80.9 30 8.3 46.9 -24.7 -0.972
16:55 1022 30.18 851 25.13 27.2 80.9 32 9.4 48.9 -24.7 -0.972
16:56 1022 30.18 851 25.13 27.2 80.9 34 10.4 50.7 -24.73 -0.974
16:57 1022 30.18 851 25.13 27.2 81 32 9.4 48.9 -24.81 -0.977
16:58 1021 30.15 851 25.13 27.1 80.9 33 9.7 49.5 -24.9 -0.98
16:59 1021 30.15 851 25.13 27 80.7 30 8.1 46.5 -24.97 -0.983
17:00 1021 30.15 851 25.13 27 80.7 32 9.1 48.3 -25.06 -0.987
17:01 1021 30.15 851 25.13 27.1 80.8 30 8.1 46.6 -25.14 -0.99
17:02 1021 30.15 851 25.13 27.2 81 29 8.1 46.5 -25.24 -0.994
17:03 1021 30.15 851 25.13 27.3 81.2 30 8.3 46.9 -25.34 -0.998
17:04 1021 30.15 851 25.13 27.4 81.4 31 9.3 48.7 -25.45 -1.002
17:05 1021 30.15 851 25.13 27.5 81.5 31 9.2 48.6 -25.55 -1.006
17:06 1021 30.15 851 25.13 27.6 81.6 32 9.5 49.1 -25.66 -1.01
17:07 1021 30.15 851 25.13 27.5 81.5 35 10.9 51.6 -25.78 -1.015
17:08 1021 30.15 851 25.13 27.5 81.4 32 9.7 49.5 -25.88 -1.019
17:09 1021 30.15 851 25.13 27.6 81.6 31 9.3 48.7 -26.01 -1.024
17:10 1021 30.15 851 25.13 27.6 81.7 33 10.4 50.7 -26.14 -1.029
17:11 1021 30.15 850 25.1 27.6 81.8 35 11.1 51.9 -26.24 -1.033
17:12 1021 30.15 850 25.1 27.6 81.7 32 9.8 49.6 -26.37 -1.038
17:13 1021 30.15 850 25.1 27.6 81.7 35 10.8 51.5 -26.46 -1.042
17:14 1021 30.15 850 25.1 27.6 81.6 33 10.3 50.5 -26.63 -1.048
17:15 1021 30.15 850 25.1 27.5 81.6 34 10.4 50.8 -26.76 -1.054
17:16 1021 30.15 850 25.1 27.5 81.4 37 11.8 53.2 -26.88 -1.058
17:17 1021 30.15 850 25.1 27.4 81.3 36 11.2 52.2 -27.01 -1.063
17:18 1021 30.15 850 25.1 27.2 81 34 10.3 50.5 -27.19 -1.07
17:19 1021 30.15 850 25.1 27.2 81 35 10.7 51.3 -27.29 -1.074
17:20 1021 30.15 850 25.1 27.2 80.9 34 10 50 -27.39 -1.078
17:21 1021 30.15 850 25.1 27.1 80.8 35 10.7 51.3 -27.5 -1.083
17:22 1021 30.15 850 25.1 27.1 80.7 35 10.4 50.6 -27.6 -1.087
17:23 1021 30.15 850 25.1 27.1 80.7 38 11.9 53.4 -27.68 -1.09
17:24 1021 30.15 850 25.1 27.1 80.8 33 9.9 49.7 -27.76 -1.093
17:25 1021 30.15 850 25.1 27.1 80.8 34 10.4 50.7 -27.88 -1.098
17:26 1021 30.15 850 25.1 27.2 80.9 34 10.4 50.8 -27.98 -1.102
17:27 1021 30.15 850 25.1 27.3 81.1 33 10 50 -28.08 -1.106
17:28 1021 30.15 850 25.1 27.4 81.3 31 9 48.2 -28.15 -1.108
17:29 1021 30.15 850 25.1 27.5 81.5 32 9.5 49.1 -28.21 -1.111
17:30 1021 30.15 850 25.1 27.5 81.5 35 11 51.8 -28.34 -1.116
17:31 1021 30.15 850 25.1 27.4 81.4 29 8.1 46.6 -28.48 -1.121
17:32 1021 30.15 850 25.1 27.5 81.6 33 10 50 -28.58 -1.125
17:33 1021 30.15 850 25.1 27.7 81.8 29 8.2 46.7 -28.66 -1.128
17:34 1021 30.15 850 25.1 27.7 81.9 33 10.3 50.6 -28.77 -1.133
17:35 1021 30.15 850 25.1 27.7 81.9 37 12.2 53.9 -28.81 -1.134
17:36 1021 30.15 850 25.1 27.6 81.8 37 12 53.6 -28.92 -1.139
17:37 1021 30.15 850 25.1 27.6 81.7 34 10.4 50.8 -29.04 -1.143
17:38 1021 30.15 850 25.1 27.6 81.7 29 8.4 47.1 -29.14 -1.147
17:39 1021 30.15 850 25.1 27.6 81.7 33 10 49.9 -29.23 -1.151
17:40 1021 30.15 850 25.1 27.7 81.9 28 7.8 46 -29.36 -1.156
17:41 1021 30.15 850 25.1 27.8 82.1 31 9.7 49.4 -29.46 -1.16
17:42 1021 30.15 850 25.1 28 82.4 29 8.7 47.6 -29.5 -1.161
17:43 1021 30.15 850 25.1 28.2 82.8 28 8.2 46.8 -29.52 -1.162
17:44 1021 30.15 850 25.1 28.5 83.3 30 9.8 49.6 -29.56 -1.164
17:45 1021 30.15 850 25.1 28.8 83.8 31 10.2 50.3 -29.57 -1.164
17:46 1021 30.15 850 25.1 28.9 84.1 29 9.6 49.3 -29.61 -1.166
17:47 1021 30.15 850 25.1 28.9 84.1 29 9.6 49.2 -29.64 -1.167
17:48 1021 30.15 850 25.1 28.9 84.1 30 9.9 49.9 -29.65 -1.167
17:49 1021 30.15 850 25.1 28.9 84.1 35 12 53.6 -29.59 -1.165
17:50 1021 30.15 850 25.1 28.9 84.1 33 11.3 52.4 -29.57 -1.164
17:51 1021 30.15 850 25.1 28.8 83.9 30 9.7 49.5 -29.52 -1.162
17:52 1021 30.15 850 25.1 28.7 83.7 29 9.1 48.4 -29.49 -1.161
17:53 1021 30.15 850 25.1 28.7 83.6 29 9 48.3 -29.47 -1.16
17:54 1021 30.15 850 25.1 28.6 83.5 29 9.2 48.6 -29.42 -1.158
17:55 1021 30.15 850 25.1 28.6 83.4 33 11 51.8 -29.38 -1.157
17:56 1021 30.15 850 25.1 28.6 83.4 33 11 51.8 -29.29 -1.153
17:57 1021 30.15 850 25.1 28.6 83.4 30 9.5 49 -29.23 -1.151
17:58 1021 30.15 850 25.1 28.5 83.3 33 10.8 51.4 -29.16 -1.148
17:59 1021 30.15 850 25.1 28.4 83.1 35 11.9 53.4 -29.05 -1.144
18:00 1021 30.15 850 25.1 28.2 82.8 29 9 48.3 -29.01 -1.142
18:01 1021 30.15 850 25.1 28.1 82.6 33 10.5 50.8 -29 -1.142
18:02 1021 30.15 850 25.1 28 82.5 31 9.6 49.2 -28.92 -1.139
18:03 1021 30.15 850 25.1 28 82.3 31 9.5 49.2 -28.82 -1.135
18:04 1021 30.15 850 25.1 27.9 82.3 29 8.4 47 -28.77 -1.133
18:05 1021 30.15 850 25.1 28 82.3 29 8.5 47.3 -28.76 -1.132
18:06 1021 30.15 850 25.1 27.9 82.2 29 8.6 47.5 -28.73 -1.131
18:07 1021 30.15 850 25.1 27.9 82.2 29 8.7 47.6 -28.73 -1.131
18:08 1021 30.15 850 25.1 27.8 82.1 32 10 50.1 -28.73 -1.131
18:09 1021 30.15 850 25.1 27.8 82.1 31 9.2 48.6 -28.73 -1.131
18:10 1021 30.15 850 25.1 27.8 82 29 8.5 47.3 -28.73 -1.131
18:11 1021 30.15 850 25.1 27.8 82 29 8.5 47.2 -28.73 -1.131
18:12 1021 30.15 850 25.1 27.8 82.1 34 10.6 51.1 -28.7 -1.13
18:13 1021 30.15 850 25.1 27.9 82.2 31 9.5 49.2 -28.66 -1.128
18:14 1021 30.15 850 25.1 28 82.4 35 11.4 52.5 -28.66 -1.128
18:15 1021 30.15 850 25.1 28.1 82.5 30 8.9 48 -28.66 -1.128
18:16 1021 30.15 850 25.1 28.2 82.7 31 9.6 49.3 -28.66 -1.128
18:17 1021 30.15 850 25.1 28.2 82.8 29 8.8 47.9 -28.67 -1.129
18:18 1021 30.15 850 25.1 28.2 82.8 30 9.2 48.6 -28.71 -1.13
18:19 1021 30.15 850 25.1 28.2 82.8 30 9.3 48.8 -28.73 -1.131
18:20 1021 30.15 850 25.1 28.3 82.9 30 9.3 48.8 -28.73 -1.131
18:21 1021 30.15 850 25.1 28.3 83 30 9.5 49.1 -28.72 -1.131
18:22 1021 30.15 850 25.1 28.3 83 29 8.8 47.9 -28.81 -1.134
18:23 1021 30.15 850 25.1 28.2 82.8 34 11.2 52.2 -28.9 -1.138
18:24 1021 30.15 850 25.1 28.1 82.7 30 9.1 48.4 -28.93 -1.139
18:25 1021 30.15 850 25.1 28.1 82.5 30 9 48.1 -28.93 -1.139
18:26 1021 30.15 850 25.1 28 82.4 31 9.7 49.5 -28.93 -1.139
18:27 1021 30.15 850 25.1 27.9 82.3 36 11.8 53.2 -28.97 -1.141
18:28 1021 30.15 850 25.1 27.9 82.2 31 9.6 49.3 -29 -1.142
18:29 1021 30.15 850 25.1 27.9 82.1 35 11.3 52.4 -29.03 -1.143
18:30 1021 30.15 850 25.1 27.9 82.1 37 12.1 53.7 -29.04 -1.143
18:31 1021 30.15 850 25.1 27.8 82.1 32 9.8 49.6 -29.04 -1.143
18:32 1021 30.15 850 25.1 27.8 82.1 35 11.2 52.2 -29.07 -1.144
18:33 1021 30.15 850 25.1 27.8 82 42 13.9 57 -29.07 -1.144
18:34 1021 30.15 850 25.1 27.7 81.9 34 10.5 50.9 -29.1 -1.146
18:35 1021 30.15 850 25.1 27.7 81.9 35 11.2 52.2 -29.14 -1.147
18:36 1021 30.15 850 25.1 27.7 81.9 30 9 48.1 -29.22 -1.15
18:37 1021 30.15 850 25.1 27.7 81.8 31 9.5 49.1 -29.31 -1.154
18:38 1021 30.15 850 25.1 27.6 81.7 32 9.8 49.7 -29.4 -1.157
18:39 1021 30.15 850 25.1 27.6 81.7 32 9.5 49.2 -29.49 -1.161
18:40 1021 30.15 850 25.1 27.6 81.6 37 11.9 53.4 -29.53 -1.163
18:41 1021 30.15 850 25.1 27.4 81.3 39 12.5 54.5 -29.57 -1.164
18:42 1021 30.15 850 25.1 27.2 80.9 44 14 57.2 -29.61 -1.166
18:43 1021 30.15 850 25.1 26.9 80.5 40 12.6 54.7 -29.71 -1.17
18:44 1021 30.15 850 25.1 26.7 80.1 42 13 55.3 -29.82 -1.174
18:45 1021 30.15 850 25.1 26.6 79.8 43 13 55.5 -29.9 -1.177
18:46 1021 30.15 850 25.1 26.4 79.6 45 13.7 56.7 -29.98 -1.18
18:47 1021 30.15 850 25.1 26.4 79.5 48 14.6 58.2 -30.05 -1.183
18:48 1021 30.15 850 25.1 26.3 79.4 47 14.4 58 -30.14 -1.187
18:49 1021 30.15 850 25.1 26.2 79.2 44 13.3 55.9 -30.24 -1.191
18:50 1021 30.15 850 25.1 26.2 79.2 47 14.1 57.4 -30.37 -1.196
18:51 1021 30.15 850 25.1 26.2 79.2 45 13.7 56.7 -30.54 -1.202
18:52 1021 30.15 850 25.1 26.3 79.3 50 15.3 59.5 -30.68 -1.208
18:53 1021 30.15 850 25.1 26.3 79.3 44 13.3 55.9 -30.83 -1.214
18:54 1021 30.15 850 25.1 26.2 79.2 43 12.9 55.1 -31 -1.22
18:55 1021 30.15 850 25.1 26.2 79.2 45 13.5 56.4 -31.19 -1.228
18:56 1021 30.15 850 25.1 26.2 79.1 46 13.9 57.1 -31.35 -1.234
18:57 1021 30.15 850 25.1 26.1 78.9 48 14.5 58.1 -31.53 -1.241
18:58 1021 30.15 850 25.1 25.9 78.5 43 12.5 54.5 -31.71 -1.248
18:59 1021 30.15 850 25.1 25.9 78.5 43 12.5 54.5 -31.91 -1.256
19:00 1021 30.15 850 25.1 25.8 78.4 42 12.2 53.9 -32.09 -1.263
19:01 1021 30.15 850 25.1 25.8 78.4 48 14.2 57.6 -32.26 -1.27
19:02 1021 30.15 850 25.1 25.6 78.2 48 14.1 57.3 -32.45 -1.278
19:03 1021 30.15 850 25.1 25.5 77.9 49 14.3 57.7 -32.64 -1.285
19:04 1021 30.15 850 25.1 25.5 78 47 13.6 56.5 -32.84 -1.293
19:05 1021 30.15 850 25.1 25.6 78 45 13 55.4 -33.04 -1.301
19:06 1021 30.15 850 25.1 25.7 78.2 45 13 55.5 -33.26 -1.309
19:07 1021 30.15 850 25.1 25.8 78.4 43 12.4 54.4 -33.47 -1.318
19:08 1021 30.15 850 25.1 25.9 78.5 43 12.5 54.5 -33.67 -1.326
19:09 1021 30.15 850 25.1 25.9 78.7 41 12 53.5 -33.89 -1.334
19:10 1021 30.15 850 25.1 25.9 78.7 42 12.4 54.4 -34.13 -1.344
19:11 1021 30.15 850 25.1 25.9 78.6 44 12.9 55.3 -34.33 -1.352
19:12 1021 30.15 850 25.1 25.8 78.4 44 13 55.3 -34.52 -1.359
19:13 1021 30.15 850 25.1 25.8 78.4 45 13.2 55.8 -34.72 -1.367
19:14 1021 30.15 850 25.1 25.7 78.3 45 13.1 55.5 -34.93 -1.375
19:15 1021 30.15 850 25.1 25.8 78.4 46 13.5 56.3 -35.12 -1.383
19:16 1021 30.15 850 25.1 25.7 78.3 47 13.9 57 -35.32 -1.391
19:17 1021 30.15 850 25.1 25.7 78.2 46 13.3 55.9 -35.53 -1.399
19:18 1021 30.15 850 25.1 25.7 78.2 44 12.9 55.1 -35.75 -1.407
19:19 1021 30.15 850 25.1 25.7 78.3 45 13.1 55.5 -35.97 -1.416
19:20 1021 30.15 850 25.1 25.7 78.3 46 13.4 56.2 -36.17 -1.424
19:21 1021 30.15 850 25.1 25.7 78.2 48 14 57.3 -36.34 -1.431
19:22 1021 30.15 850 25.1 25.6 78.1 47 13.7 56.6 -36.53 -1.438
19:23 1021 30.15 850 25.1 25.6 78.1 46 13.4 56.1 -36.74 -1.446
19:24 1021 30.15 850 25.1 25.7 78.2 46 13.2 55.8 -36.94 -1.454
19:25 1021 30.15 850 25.1 25.7 78.2 45 13.2 55.8 -37.16 -1.463
19:26 1021 30.15 850 25.1 25.7 78.2 46 13.5 56.3 -37.33 -1.47
19:27 1021 30.15 850 25.1 25.6 78.1 47 13.7 56.7 -37.5 -1.476
19:28 1021 30.15 850 25.1 25.6 78.1 47 13.5 56.3 -37.66 -1.483
19:29 1021 30.15 850 25.1 25.6 78.1 45 13 55.3 -37.84 -1.49
19:30 1021 30.15 850 25.1 25.7 78.2 45 13.1 55.6 -38.01 -1.496
19:31 1021 30.15 850 25.1 25.6 78.1 47 13.7 56.7 -38.18 -1.503
19:32 1021 30.15 850 25.1 25.6 78.1 46 13.4 56.1 -38.34 -1.509
19:33 1021 30.15 850 25.1 25.6 78.1 46 13.4 56.1 -38.5 -1.516
19:34 1021 30.15 850 25.1 25.6 78 46 13.3 55.9 -38.66 -1.522
19:35 1021 30.15 850 25.1 25.6 78 47 13.6 56.6 -38.81 -1.528
19:36 1021 30.15 850 25.1 25.5 78 46 13.3 56 -38.93 -1.533
19:37 1021 30.15 850 25.1 25.5 77.9 46 13.3 55.9 -39.06 -1.538
19:38 1021 30.15 850 25.1 25.5 77.8 47 13.5 56.2 -39.23 -1.544
19:39 1021 30.15 850 25.1 25.4 77.8 48 13.8 56.8 -39.37 -1.55
19:40 1021 30.15 850 25.1 25.4 77.8 46 13.3 55.9 -39.53 -1.556
19:41 1021 30.15 850 25.1 25.4 77.7 47 13.3 56 -39.68 -1.562
19:42 1021 30.15 850 25.1 25.4 77.7 47 13.6 56.4 -39.81 -1.567
19:43 1021 30.15 850 25.1 25.4 77.7 48 13.7 56.6 -39.93 -1.572
19:44 1021 30.15 850 25.1 25.3 77.6 48 13.8 56.9 -40.05 -1.577
19:45 1021 30.15 850 25.1 25.3 77.5 49 14.1 57.3 -40.18 -1.582
19:46 1021 30.15 850 25.1 25.2 77.4 47 13.4 56.1 -40.33 -1.588
19:47 1021 30.15 850 25.1 25.2 77.4 50 14.3 57.8 -40.47 -1.593
19:48 1021 30.15 850 25.1 25.2 77.4 49 13.8 56.9 -40.56 -1.597
19:49 1021 30.15 850 25.1 25.2 77.3 46 13 55.5 -40.7 -1.602
19:50 1021 30.15 850 25.1 25.2 77.4 48 13.8 56.8 -40.84 -1.608
19:51 1021 30.15 850 25.1 25.2 77.4 48 13.6 56.4 -40.98 -1.613
19:52 1021 30.15 850 25.1 25.1 77.1 47 13.2 55.8 -41.1 -1.618
19:53 1021 30.15 850 25.1 25.1 77.1 49 13.9 57 -41.25 -1.624
19:54 1021 30.15 850 25.1 25 77 48 13.3 55.9 -41.4 -1.63
19:55 1021 30.15 850 25.1 25 77 49 13.6 56.5 -41.56 -1.636
19:56 1021 30.15 850 25.1 25 77 48 13.3 56 -41.7 -1.642
19:57 1021 30.15 850 25.1 25 77 47 13 55.4 -41.84 -1.647
19:58 1021 30.15 850 25.1 25 77 47 13.2 55.7 -41.99 -1.653
19:59 1021 30.15 850 25.1 24.9 76.8 49 13.6 56.5 -42.13 -1.659
20:00 1021 30.15 850 25.1 24.8 76.7 48 13.2 55.8 -42.25 -1.663
20:01 1021 30.15 850 25.1 24.8 76.7 47 13 55.4 -42.39 -1.669
20:02 1021 30.15 850 25.1 24.8 76.7 46 12.7 54.9 -42.55 -1.675
20:03 1021 30.15 850 25.1 24.8 76.7 47 12.9 55.3 -42.73 -1.682
20:04 1021 30.15 850 25.1 24.8 76.6 47 12.9 55.1 -42.9 -1.689
20:05 1021 30.15 850 25.1 24.7 76.5 47 12.9 55.1 -43.04 -1.694
20:06 1021 30.15 850 25.1 24.6 76.3 47 12.9 55.1 -43.2 -1.701
20:07 1021 30.15 850 25.1 24.5 76.1 48 12.8 55.1 -43.35 -1.707
20:08 1021 30.15 850 25.1 24.4 76 48 12.8 55.1 -43.5 -1.713
20:09 1021 30.15 850 25.1 24.4 75.9 48 12.9 55.3 -43.66 -1.719
20:10 1021 30.15 850 25.1 24.3 75.8 49 13.2 55.7 -43.82 -1.725
20:11 1021 30.15 850 25.1 24.2 75.5 49 13.1 55.5 -43.96 -1.731
20:12 1021 30.15 850 25.1 24.1 75.4 49 13 55.5 -44.13 -1.737
20:13 1021 30.15 850 25.1 24.1 75.3 48 12.7 54.8 -44.3 -1.744
20:14 1021 30.15 850 25.1 24.1 75.3 49 12.9 55.3 -44.49 -1.752
20:15 1021 30.15 850 25.1 24 75.3 49 12.9 55.2 -44.66 -1.758
20:16 1021 30.15 850 25.1 24 75.2 49 12.9 55.1 -44.83 -1.765
20:17 1021 30.15 850 25.1 23.9 75.1 49 12.8 55 -44.99 -1.771
20:18 1021 30.15 850 25.1 24 75.1 48 12.5 54.4 -45.16 -1.778
20:19 1021 30.15 850 25.1 24.1 75.4 48 12.6 54.6 -45.36 -1.786
20:20 1021 30.15 850 25.1 24.1 75.4 48 12.5 54.4 -45.54 -1.793
20:21 1021 30.15 850 25.1 24.1 75.4 48 12.7 54.9 -45.73 -1.8
20:22 1021 30.15 850 25.1 24.1 75.4 48 12.6 54.8 -45.93 -1.808
20:23 1021 30.15 850 25.1 24.1 75.4 47 12.3 54.1 -46.1 -1.815
20:24 1021 30.15 850 25.1 24.1 75.3 48 12.5 54.5 -46.26 -1.821
20:25 1021 30.15 850 25.1 24 75.2 48 12.4 54.2 -46.43 -1.828
20:26 1021 30.15 850 25.1 23.9 75.1 46 11.9 53.4 -46.6 -1.835
20:27 1021 30.15 850 25.1 23.9 75 47 12.2 54 -46.78 -1.842
20:28 1021 30.15 850 25.1 23.8 74.8 47 11.9 53.4 -46.95 -1.848
20:29 1021 30.15 850 25.1 23.8 74.8 47 11.9 53.4 -47.14 -1.856
20:30 1021 30.15 850 25.1 23.8 74.8 47 12 53.5 -47.33 -1.863
20:31 1021 30.15 850 25.1 23.7 74.7 47 11.8 53.3 -47.51 -1.87
20:32 1021 30.15 850 25.1 23.8 74.8 47 12.1 53.7 -47.69 -1.878
20:33 1021 30.15 850 25.1 23.8 74.8 47 11.9 53.4 -47.86 -1.884
20:34 1021 30.15 850 25.1 23.8 74.8 47 11.9 53.5 -48.04 -1.891
20:35 1021 30.15 850 25.1 23.7 74.7 47 11.9 53.5 -48.22 -1.898
20:36 1021 30.15 850 25.1 23.7 74.6 48 12.1 53.7 -48.37 -1.904
20:37 1021 30.15 850 25.1 23.6 74.6 48 12.1 53.8 -48.55 -1.911
20:38 1021 30.15 850 25.1 23.6 74.5 49 12.4 54.2 -48.73 -1.919
20:39 1021 30.15 850 25.1 23.6 74.4 48 12 53.5 -48.91 -1.926
20:40 1021 30.15 850 25.1 23.6 74.4 48 12 53.6 -49.09 -1.933
20:41 1021 30.15 850 25.1 23.5 74.3 48 11.9 53.5 -49.25 -1.939
20:42 1021 30.15 850 25.1 23.4 74.2 48 12.1 53.8 -49.39 -1.944
20:43 1021 30.15 850 25.1 23.4 74.1 48 12.1 53.7 -49.5 -1.949
20:44 1021 30.15 850 25.1 23.4 74.1 48 12.1 53.7 -49.64 -1.954
20:45 1021 30.15 850 25.1 23.3 74 48 11.9 53.4 -49.79 -1.96
20:46 1021 30.15 850 25.1 23.3 73.9 48 11.9 53.4 -49.94 -1.966
20:47 1021 30.15 850 25.1 23.3 73.9 46 11.3 52.3 -50.11 -1.973
20:48 1021 30.15 850 25.1 23.3 74 46 11.4 52.5 -50.3 -1.98
20:49 1021 30.15 850 25.1 23.3 73.9 47 11.4 52.6 -50.48 -1.987
20:50 1021 30.15 850 25.1 23.3 73.9 47 11.4 52.5 -50.65 -1.994
20:51 1021 30.15 850 25.1 23.2 73.8 46 11.1 52.1 -50.83 -2.001
20:52 1021 30.15 850 25.1 23.2 73.8 45 11 51.7 -51.01 -2.008
20:53 1021 30.15 850 25.1 23.3 73.9 45 11 51.9 -51.18 -2.015
20:54 1021 30.15 850 25.1 23.3 73.9 47 11.5 52.6 -51.36 -2.022
20:55 1021 30.15 850 25.1 23.1 73.6 46 11 51.8 -51.51 -2.028
20:56 1021 30.15 850 25.1 23.1 73.5 45 10.8 51.5 -51.71 -2.036
20:57 1021 30.15 850 25.1 23.1 73.5 45 10.7 51.2 -51.88 -2.043
20:58 1021 30.15 850 25.1 23 73.4 45 10.8 51.4 -52.06 -2.05
20:59 1021 30.15 850 25.1 22.9 73.3 45 10.4 50.7 -52.22 -2.056
21:00 1021 30.15 850 25.1 22.9 73.2 45 10.4 50.7 -52.41 -2.063
21:01 1021 30.15 850 25.1 22.8 73.1 44 10.2 50.3 -52.58 -2.07
21:02 1021 30.15 850 25.1 22.8 73 45 10.3 50.5 -52.74 -2.076
21:03 1021 30.15 850 25.1 22.7 72.9 44 10.1 50.1 -52.92 -2.083
21:04 1021 30.15 850 25.1 22.7 72.9 43 9.8 49.6 -53.08 -2.09
21:05 1021 30.15 850 25.1 22.7 72.9 43 9.8 49.6 -53.26 -2.097
21:06 1021 30.15 850 25.1 22.8 73 44 9.9 49.8 -53.44 -2.104
21:07 1021 30.15 850 25.1 22.7 72.9 43 9.6 49.2 -53.6 -2.11
21:08 1021 30.15 850 25.1 22.8 73 43 9.7 49.4 -53.78 -2.117
21:09 1021 30.15 850 25.1 22.7 72.9 44 9.9 49.9 -53.95 -2.124
21:10 1021 30.15 850 25.1 22.6 72.7 44 9.9 49.8 -54.12 -2.131
21:11 1021 30.15 850 25.1 22.5 72.6 44 10 49.9 -54.28 -2.137
21:12 1021 30.15 850 25.1 22.4 72.4 44 9.9 49.9 -54.44 -2.143
21:13 1021 30.15 850 25.1 22.3 72.2 44 9.8 49.6 -54.6 -2.15
21:14 1021 30.15 850 25.1 22.4 72.3 44 9.9 49.7 -54.77 -2.156
21:15 1021 30.15 850 25.1 22.3 72.2 44 9.8 49.6 -54.94 -2.163
21:16 1021 30.15 850 25.1 22.3 72.2 45 9.8 49.7 -55.09 -2.169
21:17 1021 30.15 850 25.1 22.3 72.2 45 10 49.9 -55.26 -2.176
21:18 1021 30.15 850 25.1 22.3 72.2 45 9.9 49.8 -55.43 -2.182
21:19 1021 30.15 850 25.1 22.3 72.2 45 9.8 49.7 -55.6 -2.189
21:20 1021 30.15 850 25.1 22.4 72.3 45 10.1 50.1 -55.76 -2.195
21:21 1021 30.15 850 25.1 22.3 72.1 45 10 50 -55.92 -2.202
21:22 1021 30.15 850 25.1 22.2 72 45 10.1 50.1 -56.08 -2.208
21:23 1021 30.15 850 25.1 22.3 72.1 46 10.1 50.3 -56.24 -2.214
21:24 1021 30.15 850 25.1 22.3 72.2 46 10.5 50.8 -56.39 -2.22
21:25 1021 30.15 850 25.1 22.2 71.9 47 10.4 50.8 -56.53 -2.226
21:26 1021 30.15 850 25.1 22.1 71.8 47 10.5 50.9 -56.77 -2.235
21:27 1021 30.15 850 25.1 22 71.7 47 10.4 50.8 -56.95 -2.242
21:28 1021 30.15 850 25.1 22 71.7 48 10.6 51 -57.08 -2.247
21:29 1021 30.15 850 25.1 22 71.6 47 10.5 50.8 -57.22 -2.253
21:30 1021 30.15 850 25.1 22.1 71.7 47 10.5 50.9 -57.36 -2.258
21:31 1021 30.15 850 25.1 22.1 71.7 47 10.4 50.8 -57.5 -2.264
21:32 1021 30.15 850 25.1 22 71.6 48 10.7 51.3 -57.63 -2.269
21:33 1021 30.15 850 25.1 21.9 71.3 49 10.9 51.6 -57.77 -2.274
21:34 1021 30.15 850 25.1 21.7 71.1 49 10.6 51.2 -57.91 -2.28
21:35 1021 30.15 850 25.1 21.8 71.2 48 10.6 51 -58.06 -2.286
21:36 1021 30.15 850 25.1 21.8 71.2 48 10.5 50.9 -58.18 -2.291
21:37 1021 30.15 851 25.13 21.8 71.2 49 10.6 51.1 -58.34 -2.297
21:38 1021 30.15 851 25.13 21.7 71.1 48 10.5 50.8 -58.48 -2.302
21:39 1021 30.15 851 25.13 21.7 71 49 10.6 51.1 -58.61 -2.307
21:40 1021 30.15 851 25.13 21.7 71 48 10.4 50.7 -58.75 -2.313
21:41 1021 30.15 851 25.13 21.6 70.9 49 10.6 51.1 -58.89 -2.319
21:42 1021 30.15 851 25.13 21.5 70.8 48 10.1 50.2 -59.04 -2.324
21:43 1021 30.15 851 25.13 21.6 70.9 48 10.3 50.5 -59.18 -2.33
21:44 1021 30.15 851 25.13 21.6 70.8 48 10.4 50.7 -59.31 -2.335
21:45 1021 30.15 851 25.13 21.6 70.8 48 10.3 50.5 -59.47 -2.341
21:46 1021 30.15 851 25.13 21.6 71 48 10.4 50.7 -59.61 -2.347
21:47 1021 30.15 851 25.13 21.7 71 48 10.3 50.5 -59.74 -2.352
21:48 1021 30.15 851 25.13 21.7 71 49 10.5 50.9 -59.9 -2.358
21:49 1021 30.15 851 25.13 21.6 70.9 49 10.5 50.9 -60.01 -2.363
21:50 1021 30.15 851 25.13 21.6 70.9 50 10.7 51.3 -60.15 -2.368
21:51 1021 30.15 851 25.13 21.6 70.8 49 10.5 50.9 -60.28 -2.373
21:52 1021 30.15 851 25.13 21.6 70.8 50 10.7 51.3 -60.4 -2.378
21:53 1021 30.15 851 25.13 21.5 70.6 49 10.6 51.1 -60.53 -2.383
21:54 1021 30.15 851 25.13 21.5 70.7 50 10.7 51.3 -60.66 -2.388
21:55 1021 30.15 851 25.13 21.6 70.8 49 10.7 51.2 -60.77 -2.393
21:56 1021 30.15 851 25.13 21.5 70.8 50 10.7 51.3 -60.88 -2.397
21:57 1021 30.15 851 25.13 21.5 70.7 51 11 51.8 -61 -2.402
21:58 1021 30.15 851 25.13 21.4 70.5 51 11 51.7 -61.12 -2.406
21:59 1022 30.18 851 25.13 21.4 70.5 51 11 51.8 -61.23 -2.411
22:00 1022 30.18 851 25.13 21.4 70.6 51 11.1 52 -61.34 -2.415
22:01 1021 30.15 851 25.13 21.4 70.6 52 11.4 52.4 -61.45 -2.419
22:02 1021 30.15 851 25.13 21.4 70.6 52 11.4 52.4 -61.58 -2.424
22:03 1021 30.15 851 25.13 21.5 70.6 52 11.4 52.6 -61.69 -2.429
22:04 1022 30.18 851 25.13 21.4 70.6 53 11.5 52.6 -61.78 -2.432
22:05 1022 30.18 851 25.13 21.4 70.6 53 11.6 52.8 -61.87 -2.436
22:06 1022 30.18 851 25.13 21.4 70.5 53 11.6 52.9 -61.96 -2.439
22:07 1022 30.18 851 25.13 21.5 70.7 53 11.7 53.1 -62.05 -2.443
22:08 1022 30.18 851 25.13 21.4 70.4 53 11.7 53 -62.14 -2.446
22:09 1022 30.18 851 25.13 21.4 70.5 54 11.7 53.1 -62.24 -2.45
22:10 1022 30.18 851 25.13 21.4 70.5 54 11.8 53.3 -62.31 -2.453
22:11 1022 30.18 851 25.13 21.3 70.3 55 12 53.6 -62.39 -2.456
22:12 1022 30.18 851 25.13 21.2 70.1 55 11.8 53.2 -62.48 -2.46
22:13 1022 30.18 851 25.13 21.2 70.1 54 11.7 53.1 -62.57 -2.463
22:14 1022 30.18 851 25.13 21.2 70.2 54 11.8 53.2 -62.65 -2.467
22:15 1022 30.18 851 25.13 21.2 70.2 55 11.8 53.3 -62.72 -2.469
22:16 1022 30.18 851 25.13 21.2 70.1 55 11.8 53.3 -62.8 -2.472
22:17 1022 30.18 851 25.13 21.2 70.1 55 11.9 53.3 -62.89 -2.476
22:18 1022 30.18 851 25.13 21.1 70 55 11.8 53.2 -62.98 -2.48
22:19 1022 30.18 851 25.13 21.1 70.1 55 11.8 53.2 -63.06 -2.483
22:20 1022 30.18 851 25.13 21.1 69.9 55 11.9 53.5 -63.15 -2.486
22:21 1022 30.18 851 25.13 21 69.9 55 11.8 53.2 -63.24 -2.49
22:22 1022 30.18 851 25.13 21 69.9 55 11.9 53.4 -63.32 -2.493
22:23 1022 30.18 851 25.13 21 69.9 55 11.8 53.2 -63.41 -2.496
22:24 1022 30.18 851 25.13 21 69.9 56 11.9 53.5 -63.5 -2.5
22:25 1022 30.18 851 25.13 21 69.8 55 11.8 53.2 -63.59 -2.504
22:26 1022 30.18 851 25.13 21 69.9 55 11.8 53.3 -63.68 -2.507
22:27 1022 30.18 851 25.13 21.1 70 55 11.8 53.3 -63.77 -2.511
22:28 1022 30.18 851 25.13 21.1 70 55 11.9 53.4 -63.85 -2.514
22:29 1022 30.18 851 25.13 21.1 69.9 55 11.8 53.3 -63.93 -2.517
22:30 1022 30.18 851 25.13 21.1 69.9 55 11.8 53.2 -64 -2.52
22:31 1022 30.18 851 25.13 21.1 69.9 55 11.9 53.4 -64.09 -2.523
22:32 1021 30.15 851 25.13 21.1 70 55 11.8 53.3 -64.18 -2.527
22:33 1022 30.18 851 25.13 21.1 70 55 11.9 53.4 -64.26 -2.53
22:34 1022 30.18 851 25.13 21.1 70 55 12 53.5 -64.34 -2.533
22:35 1022 30.18 851 25.13 21 69.9 55 11.9 53.4 -64.4 -2.535
22:36 1022 30.18 851 25.13 21 69.8 56 11.9 53.5 -64.48 -2.539
22:37 1022 30.18 851 25.13 21 69.8 55 11.8 53.2 -64.56 -2.542
22:38 1022 30.18 851 25.13 21 69.8 55 11.8 53.3 -64.63 -2.544
22:39 1021 30.15 851 25.13 21.1 69.9 55 11.7 53.1 -64.71 -2.548
22:40 1022 30.18 851 25.13 21.1 69.9 55 11.9 53.4 -64.78 -2.55
22:41 1022 30.18 851 25.13 21 69.8 55 11.9 53.4 -64.86 -2.554
22:42 1022 30.18 851 25.13 21 69.8 55 11.8 53.3 -64.93 -2.556
22:43 1022 30.18 851 25.13 21 69.8 55 11.7 53.1 -65 -2.559
22:44 1022 30.18 851 25.13 21 69.8 55 11.8 53.2 -65.06 -2.561
22:45 1022 30.18 851 25.13 21 69.8 55 11.7 53.1 -65.11 -2.563
22:46 1022 30.18 851 25.13 21 69.7 55 11.8 53.2 -65.18 -2.566
22:47 1022 30.18 851 25.13 21 69.7 55 11.8 53.2 -65.25 -2.569
22:48 1022 30.18 851 25.13 21 69.7 56 11.9 53.4 -65.33 -2.572
22:49 1022 30.18 851 25.13 20.9 69.7 56 11.8 53.3 -65.39 -2.574
22:50 1022 30.18 851 25.13 20.9 69.6 56 11.8 53.3 -65.45 -2.577
22:51 1022 30.18 851 25.13 20.9 69.5 56 11.8 53.3 -65.51 -2.579
22:52 1022 30.18 851 25.13 20.8 69.5 56 11.8 53.3 -65.57 -2.581
22:53 1022 30.18 851 25.13 20.8 69.4 56 11.8 53.2 -65.62 -2.583
22:54 1022 30.18 851 25.13 20.8 69.4 56 11.8 53.2 -65.68 -2.586
22:55 1022 30.18 851 25.13 20.8 69.4 56 11.9 53.4 -65.74 -2.588
22:56 1022 30.18 851 25.13 20.8 69.5 56 11.8 53.2 -65.8 -2.591
22:57 1022 30.18 851 25.13 20.8 69.5 56 12 53.5 -65.86 -2.593
22:58 1022 30.18 851 25.13 20.8 69.4 56 11.9 53.4 -65.93 -2.596
22:59 1022 30.18 851 25.13 20.7 69.3 57 11.9 53.4 -65.94 -2.596
23:00 1022 30.18 851 25.13 20.7 69.2 57 11.9 53.4 -65.97 -2.597
23:01 1022 30.18 851 25.13 20.7 69.2 57 11.9 53.3 -66.03 -2.6
23:02 1022 30.18 851 25.13 20.7 69.2 57 12 53.6 -66.11 -2.603
23:03 1022 30.18 851 25.13 20.6 69.1 57 11.9 53.5 -66.17 -2.605
23:04 1022 30.18 851 25.13 20.5 68.9 58 12 53.6 -66.24 -2.608
23:05 1022 30.18 851 25.13 20.5 68.9 57 11.9 53.5 -66.3 -2.61
23:06 1022 30.18 851 25.13 20.5 68.8 57 11.8 53.2 -66.37 -2.613
23:07 1022 30.18 851 25.13 20.5 68.9 57 11.8 53.3 -66.43 -2.615
23:08 1022 30.18 851 25.13 20.5 68.9 57 11.9 53.3 -66.51 -2.619
23:09 1022 30.18 851 25.13 20.5 68.9 57 11.9 53.4 -66.58 -2.621
23:10 1022 30.18 851 25.13 20.5 68.9 58 12 53.5 -66.64 -2.624
23:11 1021 30.15 851 25.13 20.5 69 57 11.8 53.3 -66.71 -2.626
23:12 1021 30.15 851 25.13 20.5 68.9 57 11.8 53.2 -66.78 -2.629
23:13 1022 30.18 851 25.13 20.5 69 57 11.9 53.3 -66.85 -2.632
23:14 1022 30.18 851 25.13 20.5 68.9 57 11.9 53.4 -66.92 -2.635
23:15 1021 30.15 851 25.13 20.5 68.9 57 11.9 53.4 -66.98 -2.637
23:16 1022 30.18 851 25.13 20.4 68.7 58 11.9 53.4 -67.04 -2.639
23:17 1022 30.18 851 25.13 20.4 68.7 58 11.9 53.4 -67.1 -2.642
23:18 1022 30.18 851 25.13 20.3 68.5 58 11.9 53.4 -67.16 -2.644
23:19 1022 30.18 851 25.13 20.3 68.5 58 11.8 53.2 -67.23 -2.647
23:20 1022 30.18 851 25.13 20.3 68.6 58 11.9 53.4 -67.28 -2.649
23:21 1022 30.18 851 25.13 20.3 68.6 58 11.9 53.4 -67.35 -2.652
23:22 1022 30.18 851 25.13 20.3 68.6 58 11.8 53.2 -67.41 -2.654
23:23 1022 30.18 851 25.13 20.3 68.6 57 11.7 53.1 -67.47 -2.656
23:24 1022 30.18 851 25.13 20.4 68.7 57 11.8 53.2 -67.54 -2.659
23:25 1022 30.18 851 25.13 20.4 68.7 57 11.8 53.2 -67.61 -2.662
23:26 1022 30.18 851 25.13 20.4 68.7 57 11.8 53.2 -67.68 -2.665
23:27 1022 30.18 851 25.13 20.5 68.8 58 11.9 53.5 -67.74 -2.667
23:28 1021 30.15 851 25.13 20.4 68.8 58 11.9 53.4 -67.8 -2.669
23:29 1022 30.18 851 25.13 20.4 68.8 58 12 53.6 -67.85 -2.671
23:30 1022 30.18 851 25.13 20.3 68.6 58 12 53.6 -67.92 -2.674
23:31 1022 30.18 851 25.13 20.3 68.5 58 11.9 53.4 -67.97 -2.676
23:32 1022 30.18 851 25.13 20.2 68.4 58 11.8 53.2 -68.01 -2.678
23:33 1022 30.18 851 25.13 20.3 68.6 58 11.8 53.3 -68.07 -2.68
23:34 1022 30.18 851 25.13 20.4 68.6 58 12 53.5 -68.13 -2.682
23:35 1022 30.18 851 25.13 20.3 68.5 58 12 53.6 -68.19 -2.685
23:36 1022 30.18 851 25.13 20.2 68.4 59 12.1 53.8 -68.24 -2.687
23:37 1022 30.18 851 25.13 20.2 68.3 59 11.9 53.5 -68.28 -2.688
23:38 1022 30.18 851 25.13 20.2 68.3 59 11.9 53.5 -68.33 -2.69
23:39 1021 30.15 851 25.13 20.2 68.4 58 11.9 53.5 -68.4 -2.693
23:40 1022 30.18 851 25.13 20.3 68.5 59 12 53.7 -68.46 -2.695
23:41 1022 30.18 851 25.13 20.2 68.4 59 12.1 53.7 -68.5 -2.697
23:42 1022 30.18 851 25.13 20.2 68.3 59 12 53.6 -68.56 -2.699
23:43 1022 30.18 851 25.13 20.2 68.4 59 12 53.7 -68.6 -2.701
23:44 1022 30.18 851 25.13 20.2 68.3 59 12.1 53.7 -68.65 -2.703
23:45 1022 30.18 851 25.13 20.1 68.2 60 12.1 53.8 -68.69 -2.704
23:46 1022 30.18 851 25.13 20.1 68.1 60 12.1 53.8 -68.75 -2.707
23:47 1022 30.18 851 25.13 20.2 68.3 59 12 53.7 -68.8 -2.709
23:48 1022 30.18 851 25.13 20.2 68.4 59 12.1 53.7 -68.85 -2.711
23:49 1022 30.18 851 25.13 20.2 68.3 60 12.2 53.9 -68.89 -2.712
23:50 1022 30.18 851 25.13 20.1 68.2 60 12.3 54.1 -68.93 -2.714
23:51 1022 30.18 851 25.13 20.1 68.2 60 12.2 54 -68.97 -2.715
23:52 1022 30.18 851 25.13 20.1 68.2 60 12.3 54.2 -68.97 -2.715
23:53 1022 30.18 851 25.13 20.1 68.1 60 12.3 54.1 -69.02 -2.717
23:54 1022 30.18 851 25.13 20.1 68.1 60 12.2 53.9 -69.08 -2.72
23:55 1022 30.18 851 25.13 20.1 68.2 60 12.2 54 -69.13 -2.722
23:56 1022 30.18 851 25.13 20.1 68.1 61 12.3 54.2 -69.18 -2.724
23:57 1022 30.18 851 25.13 20 68 61 12.3 54.2 -69.25 -2.726
23:58 1022 30.18 851 25.13 20.1 68.1 61 12.4 54.4 -69.3 -2.728
23:59 1022 30.18 851 25.13 20.1 68.1 61 12.3 54.2 -69.36 -2.731
24:00 1022 30.18 851 25.13 20.1 68.2 61 12.4 54.3 -69.41 -2.733